Observation data for Van Horn on 07/11/2020      Previous  Date  Next       Current Mesonet Observations  Soil Data  Daily Summary Page  Observations in Plain Language
KVA1 110500Z 26003KT 31/13 A301 RMK A01 T03070127  RH  033%=      5-min Rain = 0
KVA1 110501Z 21003KT 31/13 A301 RMK A01 T03070128  RH  033%=      5-min Rain = 0
KVA1 110502Z 23002KT 31/13 A301 RMK A01 T03070130  RH  034%=      5-min Rain = 0
KVA1 110503Z 25002KT 31/13 A3011 RMK A01 T03070129  RH  034%=      5-min Rain = 0
KVA1 110504Z 26003KT 31/13 A301 RMK A01 T03060130  RH  034%=      5-min Rain = 0
KVA1 110505Z 23004KT 31/13 A301 RMK A01 T03050129  RH  034%=      5-min Rain = 0
KVA1 110506Z 22004KT 31/14 A301 RMK A01 T03050140  RH  037%=      5-min Rain = 0
KVA1 110507Z 20005KT 31/15 A301 RMK A01 T03050145  RH  038%=      5-min Rain = 0
KVA1 110508Z 20003KT 31/14 A301 RMK A01 T03060143  RH  037%=      5-min Rain = 0
KVA1 110509Z 18002KT 31/14 A301 RMK A01 T03060144  RH  037%=      5-min Rain = 0
KVA1 110510Z 19006KT 31/15 A301 RMK A01 T03060152  RH  039%=      5-min Rain = 0
KVA1 110511Z 18005KT 31/15 A301 RMK A01 T03070153  RH  039%=      5-min Rain = 0
KVA1 110512Z 18005KT 31/15 A301 RMK A01 T03070154  RH  039%=      5-min Rain = 0
KVA1 110513Z 17010KT 31/16 A301 RMK A01 T03070156  RH  040%=      5-min Rain = 0
KVA1 110514Z 18009KT 31/16 A301 RMK A01 T03080158  RH  040%=      5-min Rain = 0
KVA1 110515Z 17008KT 31/16 A301 RMK A01 T03090158  RH  040%=      5-min Rain = 0
KVA1 110516Z 18008KT 31/16 A301 RMK A01 T03090158  RH  040%=      5-min Rain = 0
KVA1 110517Z 18009KT 31/16 A301 RMK A01 T03090159  RH  040%=      5-min Rain = 0
KVA1 110518Z 18015KT 31/16 A301 RMK A01 T03090160  RH  041%=      5-min Rain = 0
KVA1 110519Z 18010G15KT 31/16 A301 RMK A01 T03100161  RH  041%=      5-min Rain = 0
KVA1 110520Z 18011KT 31/16 A3011 RMK A01 T03100160  RH  041%=      5-min Rain = 0
KVA1 110521Z 18009KT 31/16 A3011 RMK A01 T03100161  RH  041%=      5-min Rain = 0
KVA1 110522Z 17010KT 31/16 A3011 RMK A01 T03100161  RH  041%=      5-min Rain = 0
KVA1 110523Z 18013KT 31/16 A3011 RMK A01 T03100161  RH  041%=      5-min Rain = 0
KVA1 110524Z 18011KT 31/16 A3011 RMK A01 T03090161  RH  041%=      5-min Rain = 0
KVA1 110525Z 18011KT 31/16 A3011 RMK A01 T03090161  RH  041%=      5-min Rain = 0
KVA1 110526Z 18012KT 31/16 A3011 RMK A01 T03090161  RH  041%=      5-min Rain = 0
KVA1 110527Z 18010KT 31/16 A3011 RMK A01 T03090161  RH  041%=      5-min Rain = 0
KVA1 110528Z 17012KT 31/16 A3011 RMK A01 T03090161  RH  041%=      5-min Rain = 0
KVA1 110529Z 18010KT 31/16 A3011 RMK A01 T03090162  RH  041%=      5-min Rain = 0
KVA1 110530Z 17010KT 31/16 A3011 RMK A01 T03090162  RH  041%=      5-min Rain = 0
KVA1 110531Z 17012KT 31/16 A3011 RMK A01 T03080161  RH  041%=      5-min Rain = 0
KVA1 110532Z 17011KT 31/16 A3011 RMK A01 T03080161  RH  041%=      5-min Rain = 0
KVA1 110533Z 17013KT 31/16 A3011 RMK A01 T03080161  RH  041%=      5-min Rain = 0
KVA1 110534Z 17010KT 31/16 A3011 RMK A01 T03080161  RH  041%=      5-min Rain = 0
KVA1 110535Z 17010KT 31/16 A3011 RMK A01 T03090161  RH  041%=      5-min Rain = 0
KVA1 110536Z 17011G16KT 31/16 A3011 RMK A01 T03080161  RH  041%=      5-min Rain = 0
KVA1 110537Z 17011KT 31/16 A3011 RMK A01 T03080161  RH  041%=      5-min Rain = 0
KVA1 110538Z 17010KT 31/16 A3011 RMK A01 T03080161  RH  041%=      5-min Rain = 0
KVA1 110539Z 17011KT 31/16 A3011 RMK A01 T03080161  RH  041%=      5-min Rain = 0
KVA1 110540Z 18012KT 31/16 A3011 RMK A01 T03070161  RH  041%=      5-min Rain = 0
KVA1 110541Z 17010KT 31/16 A3011 RMK A01 T03070160  RH  041%=      5-min Rain = 0
KVA1 110542Z 17010KT 31/16 A3011 RMK A01 T03070161  RH  041%=      5-min Rain = 0
KVA1 110543Z 17009KT 31/16 A3011 RMK A01 T03070161  RH  041%=      5-min Rain = 0
KVA1 110544Z 17010KT 31/16 A3011 RMK A01 T03070161  RH  041%=      5-min Rain = 0
KVA1 110545Z 18011KT 31/16 A3011 RMK A01 T03070161  RH  041%=      5-min Rain = 0
KVA1 110546Z 17013KT 31/16 A3011 RMK A01 T03060160  RH  041%=      5-min Rain = 0
KVA1 110547Z 18012KT 31/16 A3011 RMK A01 T03060160  RH  041%=      5-min Rain = 0
KVA1 110548Z 18012KT 31/16 A3012 RMK A01 T03060160  RH  041%=      5-min Rain = 0
KVA1 110549Z 17011G16KT 31/16 A3012 RMK A01 T03060160  RH  041%=      5-min Rain = 0
KVA1 110550Z 17010KT 31/16 A3012 RMK A01 T03060160  RH  041%=      5-min Rain = 0
KVA1 110551Z 17010KT 31/16 A3012 RMK A01 T03060160  RH  041%=      5-min Rain = 0
KVA1 110552Z 17012KT 31/16 A3011 RMK A01 T03060160  RH  041%=      5-min Rain = 0
KVA1 110553Z 17011KT 31/16 A3012 RMK A01 T03060160  RH  041%=      5-min Rain = 0
KVA1 110554Z 17010KT 31/16 A3011 RMK A01 T03060160  RH  041%=      5-min Rain = 0
KVA1 110555Z 17010KT 31/16 A3012 RMK A01 T03060160  RH  041%=      5-min Rain = 0
KVA1 110556Z 17010KT 31/16 A3011 RMK A01 T03060160  RH  041%=      5-min Rain = 0
KVA1 110557Z 17011KT 31/16 A3011 RMK A01 T03050160  RH  041%=      5-min Rain = 0
KVA1 110558Z 17013KT 31/16 A3011 RMK A01 T03050159  RH  041%=      5-min Rain = 0
KVA1 110559Z 17009G14KT 31/16 A3012 RMK A01 T03050159  RH  041%=      5-min Rain = 0
KVA1 110600Z 16010KT 31/16 A3012 RMK A01 T03050159  RH  041%=      5-min Rain = 0
KVA1 110601Z 17009G14KT 31/16 A3012 RMK A01 T03050159  RH  041%=      5-min Rain = 0
KVA1 110602Z 17014KT 31/16 A3011 RMK A01 T03050159  RH  041%=      5-min Rain = 0
KVA1 110603Z 16012KT 31/16 A3011 RMK A01 T03050159  RH  041%=      5-min Rain = 0
KVA1 110604Z 17010KT 31/16 A3011 RMK A01 T03060159  RH  041%=      5-min Rain = 0
KVA1 110605Z 17012KT 31/16 A3012 RMK A01 T03060159  RH  041%=      5-min Rain = 0
KVA1 110606Z 17010KT 31/16 A3012 RMK A01 T03060159  RH  041%=      5-min Rain = 0
KVA1 110607Z 17013KT 31/16 A3012 RMK A01 T03050159  RH  041%=      5-min Rain = 0
KVA1 110608Z 16013G19KT 31/16 A3012 RMK A01 T03050158  RH  041%=      5-min Rain = 0
KVA1 110609Z 17012KT 31/16 A3012 RMK A01 T03050158  RH  041%=      5-min Rain = 0
KVA1 110610Z 16014KT 31/16 A3012 RMK A01 T03050158  RH  041%=      5-min Rain = 0
KVA1 110611Z 17013KT 31/16 A3012 RMK A01 T03050158  RH  041%=      5-min Rain = 0
KVA1 110612Z 17010KT 31/16 A3012 RMK A01 T03050158  RH  041%=      5-min Rain = 0
KVA1 110613Z 17011KT 31/16 A3012 RMK A01 T03050158  RH  041%=      5-min Rain = 0
KVA1 110614Z 17013KT 31/16 A3012 RMK A01 T03050158  RH  041%=      5-min Rain = 0
KVA1 110615Z 17014G21KT 31/16 A3012 RMK A01 T03050157  RH  041%=      5-min Rain = 0
KVA1 110616Z 17016KT 31/16 A3012 RMK A01 T03050158  RH  041%=      5-min Rain = 0
KVA1 110617Z 17013G18KT 31/16 A3012 RMK A01 T03060158  RH  041%=      5-min Rain = 0
KVA1 110618Z 17015G20KT 31/16 A3011 RMK A01 T03060158  RH  041%=      5-min Rain = 0
KVA1 110619Z 18011KT 31/16 A3011 RMK A01 T03060158  RH  041%=      5-min Rain = 0
KVA1 110620Z 18010KT 31/16 A3011 RMK A01 T03050158  RH  041%=      5-min Rain = 0
KVA1 110621Z 18011KT 31/16 A3011 RMK A01 T03050158  RH  041%=      5-min Rain = 0
KVA1 110622Z 17013KT 30/16 A3011 RMK A01 T03040158  RH  041%=      5-min Rain = 0
KVA1 110623Z 17011KT 30/16 A3011 RMK A01 T03030158  RH  042%=      5-min Rain = 0
KVA1 110624Z 17015KT 30/16 A3011 RMK A01 T03020158  RH  042%=      5-min Rain = 0
KVA1 110625Z 17016KT 30/16 A3011 RMK A01 T03030158  RH  042%=      5-min Rain = 0
KVA1 110626Z 17014KT 30/16 A3011 RMK A01 T03030158  RH  042%=      5-min Rain = 0
KVA1 110627Z 16013KT 30/16 A3011 RMK A01 T03030158  RH  042%=      5-min Rain = 0
KVA1 110628Z 17018G23KT 30/16 A3011 RMK A01 T03030158  RH  042%=      5-min Rain = 0
KVA1 110629Z 16018KT 30/16 A3011 RMK A01 T03030159  RH  042%=      5-min Rain = 0
KVA1 110630Z 16014KT 30/16 A3011 RMK A01 T03030159  RH  042%=      5-min Rain = 0
KVA1 110631Z 16016KT 30/16 A3011 RMK A01 T03040160  RH  042%=      5-min Rain = 0
KVA1 110632Z 17015KT 30/16 A3011 RMK A01 T03040160  RH  042%=      5-min Rain = 0
KVA1 110633Z 18016KT 30/16 A3011 RMK A01 T03040160  RH  042%=      5-min Rain = 0
KVA1 110634Z 17012G17KT 30/16 A3011 RMK A01 T03040160  RH  042%=      5-min Rain = 0
KVA1 110635Z 17017KT 30/16 A3011 RMK A01 T03040160  RH  042%=      5-min Rain = 0
KVA1 110636Z 17018KT 30/16 A3011 RMK A01 T03040160  RH  042%=      5-min Rain = 0
KVA1 110637Z 17019KT 30/16 A3011 RMK A01 T03040160  RH  042%=      5-min Rain = 0
KVA1 110638Z 17014G20KT 30/16 A3011 RMK A01 T03030159  RH  042%=      5-min Rain = 0
KVA1 110639Z 17017KT 30/16 A3011 RMK A01 T03040159  RH  042%=      5-min Rain = 0
KVA1 110640Z 17013KT 30/16 A3011 RMK A01 T03030159  RH  042%=      5-min Rain = 0
KVA1 110641Z 18012KT 30/16 A3011 RMK A01 T03030159  RH  042%=      5-min Rain = 0
KVA1 110642Z 17013G18KT 30/16 A3011 RMK A01 T03020159  RH  042%=      5-min Rain = 0
KVA1 110643Z 17012KT 30/16 A3011 RMK A01 T03020158  RH  042%=      5-min Rain = 0
KVA1 110644Z 18015KT 30/16 A3011 RMK A01 T03010158  RH  042%=      5-min Rain = 0
KVA1 110645Z 18015KT 30/16 A3011 RMK A01 T03010158  RH  042%=      5-min Rain = 0
KVA1 110646Z 18016KT 30/16 A3011 RMK A01 T03010158  RH  042%=      5-min Rain = 0
KVA1 110647Z 18013KT 30/16 A3011 RMK A01 T03010158  RH  042%=      5-min Rain = 0
KVA1 110648Z 18011KT 30/16 A3011 RMK A01 T03010158  RH  042%=      5-min Rain = 0
KVA1 110649Z 18013KT 30/16 A3011 RMK A01 T03000158  RH  042%=      5-min Rain = 0
KVA1 110650Z 18014KT 30/16 A3012 RMK A01 T02990158  RH  042%=      5-min Rain = 0
KVA1 110651Z 17016KT 30/16 A3011 RMK A01 T02990158  RH  042%=      5-min Rain = 0
KVA1 110652Z 17015KT 30/16 A3012 RMK A01 T02990158  RH  043%=      5-min Rain = 0
KVA1 110653Z 17016KT 30/16 A3011 RMK A01 T02980158  RH  043%=      5-min Rain = 0
KVA1 110654Z 17016KT 30/16 A3011 RMK A01 T02980158  RH  043%=      5-min Rain = 0
KVA1 110655Z 16017G22KT 30/16 A3011 RMK A01 T02980158  RH  043%=      5-min Rain = 0
KVA1 110656Z 16017KT 30/16 A3011 RMK A01 T02980158  RH  043%=      5-min Rain = 0
KVA1 110657Z 17017KT 30/16 A3011 RMK A01 T02970157  RH  043%=      5-min Rain = 0
KVA1 110658Z 17016G21KT 30/16 A3011 RMK A01 T02970158  RH  043%=      5-min Rain = 0
KVA1 110659Z 16014KT 30/16 A3011 RMK A01 T02970158  RH  043%=      5-min Rain = 0
KVA1 110700Z 16013KT 30/16 A3011 RMK A01 T02970158  RH  043%=      5-min Rain = 0
KVA1 110701Z 16012G18KT 30/16 A3011 RMK A01 T02960157  RH  043%=      5-min Rain = 0
KVA1 110702Z 17015G20KT 30/16 A3011 RMK A01 T02960157  RH  043%=      5-min Rain = 0
KVA1 110703Z 17014G19KT 30/16 A3011 RMK A01 T02960157  RH  043%=      5-min Rain = 0
KVA1 110704Z 17013G18KT 30/16 A3011 RMK A01 T02960156  RH  043%=      5-min Rain = 0
KVA1 110705Z 18013KT 30/16 A3011 RMK A01 T02960156  RH  043%=      5-min Rain = 0
KVA1 110706Z 18014KT 30/16 A3011 RMK A01 T02960157  RH  043%=      5-min Rain = 0
KVA1 110707Z 18011KT 30/16 A3011 RMK A01 T02960157  RH  043%=      5-min Rain = 0
KVA1 110708Z 18012KT 30/16 A3011 RMK A01 T02960157  RH  043%=      5-min Rain = 0
KVA1 110709Z 19011KT 30/16 A3011 RMK A01 T02950156  RH  043%=      5-min Rain = 0
KVA1 110710Z 19014KT 29/16 A3011 RMK A01 T02940156  RH  043%=      5-min Rain = 0
KVA1 110711Z 18013KT 29/16 A3011 RMK A01 T02940156  RH  043%=      5-min Rain = 0
KVA1 110712Z 18013KT 29/16 A3011 RMK A01 T02940156  RH  043%=      5-min Rain = 0
KVA1 110713Z 18013KT 29/16 A3011 RMK A01 T02930156  RH  043%=      5-min Rain = 0
KVA1 110714Z 18012KT 29/16 A3011 RMK A01 T02930156  RH  043%=      5-min Rain = 0
KVA1 110715Z 17012KT 29/16 A3011 RMK A01 T02930156  RH  043%=      5-min Rain = 0
KVA1 110716Z 17015KT 29/16 A3011 RMK A01 T02930155  RH  043%=      5-min Rain = 0
KVA1 110717Z 17013KT 29/16 A3011 RMK A01 T02930155  RH  043%=      5-min Rain = 0
KVA1 110718Z 17014KT 29/16 A3011 RMK A01 T02930155  RH  043%=      5-min Rain = 0
KVA1 110719Z 17013KT 29/16 A3011 RMK A01 T02930155  RH  043%=      5-min Rain = 0
KVA1 110720Z 17014KT 29/16 A3011 RMK A01 T02940156  RH  043%=      5-min Rain = 0
KVA1 110721Z 17012KT 29/16 A3011 RMK A01 T02930155  RH  043%=      5-min Rain = 0
KVA1 110722Z 17012KT 29/16 A3011 RMK A01 T02930155  RH  043%=      5-min Rain = 0
KVA1 110723Z 17013KT 29/16 A3011 RMK A01 T02930155  RH  043%=      5-min Rain = 0
KVA1 110724Z 17014KT 29/16 A3011 RMK A01 T02930155  RH  043%=      5-min Rain = 0
KVA1 110725Z 17014KT 29/16 A3011 RMK A01 T02930155  RH  043%=      5-min Rain = 0
KVA1 110726Z 16012KT 29/16 A3011 RMK A01 T02930155  RH  043%=      5-min Rain = 0
KVA1 110727Z 17013KT 29/16 A3011 RMK A01 T02930155  RH  043%=      5-min Rain = 0
KVA1 110728Z 17012KT 29/16 A3011 RMK A01 T02930155  RH  043%=      5-min Rain = 0
KVA1 110729Z 17014KT 29/16 A3011 RMK A01 T02920155  RH  043%=      5-min Rain = 0
KVA1 110730Z 18010KT 29/16 A3011 RMK A01 T02920155  RH  043%=      5-min Rain = 0
KVA1 110731Z 18011KT 29/16 A3012 RMK A01 T02920155  RH  043%=      5-min Rain = 0
KVA1 110732Z 18011KT 29/16 A3012 RMK A01 T02910155  RH  044%=      5-min Rain = 0
KVA1 110733Z 19011KT 29/16 A3012 RMK A01 T02910155  RH  044%=      5-min Rain = 0
KVA1 110734Z 19010KT 29/16 A3012 RMK A01 T02910155  RH  044%=      5-min Rain = 0
KVA1 110735Z 19011KT 29/16 A3012 RMK A01 T02900155  RH  044%=      5-min Rain = 0
KVA1 110736Z 18011KT 29/16 A3012 RMK A01 T02900155  RH  044%=      5-min Rain = 0
KVA1 110737Z 18011G16KT 29/16 A3012 RMK A01 T02900155  RH  044%=      5-min Rain = 0
KVA1 110738Z 18013KT 29/16 A3012 RMK A01 T02900155  RH  044%=      5-min Rain = 0
KVA1 110739Z 18011KT 29/16 A3012 RMK A01 T02900155  RH  044%=      5-min Rain = 0
KVA1 110740Z 18013KT 29/16 A3012 RMK A01 T02900155  RH  044%=      5-min Rain = 0
KVA1 110741Z 18011KT 29/16 A3012 RMK A01 T02900155  RH  044%=      5-min Rain = 0
KVA1 110742Z 18011KT 29/16 A3012 RMK A01 T02900155  RH  044%=      5-min Rain = 0
KVA1 110743Z 18010G16KT 29/16 A3012 RMK A01 T02900155  RH  044%=      5-min Rain = 0
KVA1 110744Z 18012KT 29/16 A3012 RMK A01 T02900155  RH  044%=      5-min Rain = 0
KVA1 110745Z 17015KT 29/16 A3012 RMK A01 T02900155  RH  044%=      5-min Rain = 0
KVA1 110746Z 17015KT 29/16 A3012 RMK A01 T02910155  RH  044%=      5-min Rain = 0
KVA1 110747Z 17013KT 29/16 A3012 RMK A01 T02910155  RH  044%=      5-min Rain = 0
KVA1 110748Z 17013KT 29/16 A3012 RMK A01 T02910155  RH  044%=      5-min Rain = 0
KVA1 110749Z 17016KT 29/16 A3012 RMK A01 T02910155  RH  044%=      5-min Rain = 0
KVA1 110750Z 17013KT 29/16 A3012 RMK A01 T02910155  RH  044%=      5-min Rain = 0
KVA1 110751Z 17008KT 29/16 A3012 RMK A01 T02910155  RH  044%=      5-min Rain = 0
KVA1 110752Z 17013KT 29/16 A3011 RMK A01 T02910155  RH  044%=      5-min Rain = 0
KVA1 110753Z 17011KT 29/16 A3012 RMK A01 T02900155  RH  044%=      5-min Rain = 0
KVA1 110754Z 17011KT 29/16 A3011 RMK A01 T02900155  RH  044%=      5-min Rain = 0
KVA1 110755Z 17011KT 29/16 A3011 RMK A01 T02900155  RH  044%=      5-min Rain = 0
KVA1 110756Z 17011KT 29/15 A3011 RMK A01 T02890154  RH  044%=      5-min Rain = 0
KVA1 110757Z 17008KT 29/15 A3011 RMK A01 T02890154  RH  044%=      5-min Rain = 0
KVA1 110758Z 17011KT 29/15 A3011 RMK A01 T02890154  RH  044%=      5-min Rain = 0
KVA1 110759Z 17012KT 29/15 A3011 RMK A01 T02890154  RH  044%=      5-min Rain = 0
KVA1 110800Z 17010KT 29/15 A3011 RMK A01 T02890154  RH  044%=      5-min Rain = 0
KVA1 110801Z 17012KT 29/15 A3011 RMK A01 T02880154  RH  044%=      5-min Rain = 0
KVA1 110802Z 18011KT 29/15 A3011 RMK A01 T02880154  RH  044%=      5-min Rain = 0
KVA1 110803Z 18011KT 29/15 A3011 RMK A01 T02880154  RH  044%=      5-min Rain = 0
KVA1 110804Z 18012KT 29/15 A3011 RMK A01 T02880154  RH  044%=      5-min Rain = 0
KVA1 110805Z 18010KT 29/15 A3011 RMK A01 T02880154  RH  044%=      5-min Rain = 0
KVA1 110806Z 18013KT 29/15 A3011 RMK A01 T02880154  RH  044%=      5-min Rain = 0
KVA1 110807Z 18011KT 29/15 A3011 RMK A01 T02880154  RH  044%=      5-min Rain = 0
KVA1 110808Z 17013KT 29/15 A3011 RMK A01 T02870154  RH  044%=      5-min Rain = 0
KVA1 110809Z 17011KT 29/15 A3011 RMK A01 T02880154  RH  044%=      5-min Rain = 0
KVA1 110810Z 18011KT 29/15 A3011 RMK A01 T02880154  RH  044%=      5-min Rain = 0
KVA1 110811Z 17012KT 29/15 A3011 RMK A01 T02880154  RH  044%=      5-min Rain = 0
KVA1 110812Z 18012KT 29/15 A3011 RMK A01 T02870154  RH  044%=      5-min Rain = 0
KVA1 110813Z 17012KT 29/15 A3011 RMK A01 T02880154  RH  044%=      5-min Rain = 0
KVA1 110814Z 17013KT 29/15 A3011 RMK A01 T02880153  RH  044%=      5-min Rain = 0
KVA1 110815Z 17011KT 29/15 A3011 RMK A01 T02880152  RH  044%=      5-min Rain = 0
KVA1 110816Z 17011KT 29/15 A3011 RMK A01 T02880152  RH  044%=      5-min Rain = 0
KVA1 110817Z 17010KT 29/15 A3011 RMK A01 T02880152  RH  044%=      5-min Rain = 0
KVA1 110818Z 17013KT 29/15 A3011 RMK A01 T02880152  RH  044%=      5-min Rain = 0
KVA1 110819Z 17012KT 29/15 A3011 RMK A01 T02880151  RH  043%=      5-min Rain = 0
KVA1 110820Z 17012KT 29/15 A3011 RMK A01 T02880151  RH  043%=      5-min Rain = 0
KVA1 110821Z 17012KT 29/15 A301 RMK A01 T02880151  RH  043%=      5-min Rain = 0
KVA1 110822Z 17015KT 29/15 A301 RMK A01 T02880150  RH  043%=      5-min Rain = 0
KVA1 110823Z 17012KT 29/15 A301 RMK A01 T02890149  RH  043%=      5-min Rain = 0
KVA1 110824Z 17012KT 29/15 A3011 RMK A01 T02890149  RH  043%=      5-min Rain = 0
KVA1 110825Z 18014KT 29/15 A301 RMK A01 T02890149  RH  042%=      5-min Rain = 0
KVA1 110826Z 17011KT 29/15 A3011 RMK A01 T02890149  RH  042%=      5-min Rain = 0
KVA1 110827Z 18010KT 29/15 A3011 RMK A01 T02890149  RH  042%=      5-min Rain = 0
KVA1 110828Z 17010KT 29/15 A3011 RMK A01 T02890149  RH  042%=      5-min Rain = 0
KVA1 110829Z 18012KT 29/15 A3011 RMK A01 T02890148  RH  042%=      5-min Rain = 0
KVA1 110830Z 17012KT 29/15 A3011 RMK A01 T02890147  RH  042%=      5-min Rain = 0
KVA1 110831Z 17012KT 29/15 A3011 RMK A01 T02890147  RH  042%=      5-min Rain = 0
KVA1 110832Z 18010KT 29/15 A3011 RMK A01 T02900147  RH  042%=      5-min Rain = 0
KVA1 110833Z 17010KT 29/15 A3011 RMK A01 T02900147  RH  042%=      5-min Rain = 0
KVA1 110834Z 18011KT 29/15 A3011 RMK A01 T02900147  RH  042%=      5-min Rain = 0
KVA1 110835Z 17011KT 29/15 A3011 RMK A01 T02890148  RH  042%=      5-min Rain = 0
KVA1 110836Z 17010KT 29/15 A3011 RMK A01 T02890148  RH  042%=      5-min Rain = 0
KVA1 110837Z 18008KT 29/15 A3011 RMK A01 T02890148  RH  042%=      5-min Rain = 0
KVA1 110838Z 17012KT 29/15 A301 RMK A01 T02890148  RH  042%=      5-min Rain = 0
KVA1 110839Z 17011KT 29/15 A301 RMK A01 T02880148  RH  042%=      5-min Rain = 0
KVA1 110840Z 18010KT 29/15 A301 RMK A01 T02880149  RH  043%=      5-min Rain = 0
KVA1 110841Z 18012KT 29/15 A301 RMK A01 T02880149  RH  043%=      5-min Rain = 0
KVA1 110842Z 18011G16KT 29/15 A3011 RMK A01 T02880150  RH  043%=      5-min Rain = 0
KVA1 110843Z 18012KT 29/15 A3011 RMK A01 T02890150  RH  043%=      5-min Rain = 0
KVA1 110844Z 18009KT 29/15 A3011 RMK A01 T02890150  RH  043%=      5-min Rain = 0
KVA1 110845Z 18010KT 29/15 A3011 RMK A01 T02890150  RH  043%=      5-min Rain = 0
KVA1 110846Z 18012KT 29/15 A3011 RMK A01 T02890150  RH  043%=      5-min Rain = 0
KVA1 110847Z 18010KT 29/15 A3011 RMK A01 T02880150  RH  043%=      5-min Rain = 0
KVA1 110848Z 18012KT 29/15 A301 RMK A01 T02880149  RH  043%=      5-min Rain = 0
KVA1 110849Z 18012KT 29/15 A301 RMK A01 T02880149  RH  043%=      5-min Rain = 0
KVA1 110850Z 18011KT 29/15 A301 RMK A01 T02890150  RH  043%=      5-min Rain = 0
KVA1 110851Z 18011KT 29/15 A301 RMK A01 T02890149  RH  043%=      5-min Rain = 0
KVA1 110852Z 18012KT 29/15 A301 RMK A01 T02890150  RH  043%=      5-min Rain = 0
KVA1 110853Z 18013KT 29/15 A301 RMK A01 T02890149  RH  043%=      5-min Rain = 0
KVA1 110854Z 17012KT 29/15 A301 RMK A01 T02890150  RH  043%=      5-min Rain = 0
KVA1 110855Z 18011KT 29/15 A301 RMK A01 T02890150  RH  043%=      5-min Rain = 0
KVA1 110856Z 18011KT 29/15 A301 RMK A01 T02890150  RH  043%=      5-min Rain = 0
KVA1 110857Z 18013KT 29/15 A301 RMK A01 T02890150  RH  043%=      5-min Rain = 0
KVA1 110858Z 18012KT 29/15 A301 RMK A01 T02890150  RH  043%=      5-min Rain = 0
KVA1 110859Z 18009KT 29/15 A301 RMK A01 T02900150  RH  043%=      5-min Rain = 0
KVA1 110900Z 18012KT 29/15 A301 RMK A01 T02890149  RH  043%=      5-min Rain = 0
KVA1 110901Z 18012KT 29/15 A301 RMK A01 T02880149  RH  043%=      5-min Rain = 0
KVA1 110902Z 18012KT 29/15 A301 RMK A01 T02880149  RH  043%=      5-min Rain = 0
KVA1 110903Z 19011KT 29/15 A301 RMK A01 T02870149  RH  043%=      5-min Rain = 0
KVA1 110904Z 19010KT 29/15 A301 RMK A01 T02870149  RH  043%=      5-min Rain = 0
KVA1 110905Z 21008KT 29/15 A301 RMK A01 T02860148  RH  043%=      5-min Rain = 0
KVA1 110906Z 21009KT 29/15 A301 RMK A01 T02860148  RH  043%=      5-min Rain = 0
KVA1 110907Z 23008KT 29/15 A301 RMK A01 T02850149  RH  043%=      5-min Rain = 0
KVA1 110908Z 24007KT 28/15 A301 RMK A01 T02840148  RH  044%=      5-min Rain = 0
KVA1 110909Z 25006KT 28/15 A3011 RMK A01 T02820148  RH  044%=      5-min Rain = 0
KVA1 110910Z 25005KT 28/15 A3011 RMK A01 T02800148  RH  044%=      5-min Rain = 0
KVA1 110911Z 25004KT 28/15 A3011 RMK A01 T02780147  RH  045%=      5-min Rain = 0
KVA1 110912Z 24005KT 28/15 A3011 RMK A01 T02770148  RH  045%=      5-min Rain = 0
KVA1 110913Z 25005KT 28/15 A3011 RMK A01 T02750148  RH  046%=      5-min Rain = 0
KVA1 110914Z 23004KT 27/15 A3011 RMK A01 T02740147  RH  046%=      5-min Rain = 0
KVA1 110915Z 23006KT 27/15 A301 RMK A01 T02730148  RH  046%=      5-min Rain = 0
KVA1 110916Z 23007KT 27/15 A301 RMK A01 T02720148  RH  046%=      5-min Rain = 0
KVA1 110917Z 23008KT 27/15 A3011 RMK A01 T02720148  RH  046%=      5-min Rain = 0
KVA1 110918Z 23008KT 27/15 A3011 RMK A01 T02740148  RH  046%=      5-min Rain = 0
KVA1 110919Z 22010KT 28/15 A3011 RMK A01 T02750148  RH  046%=      5-min Rain = 0
KVA1 110920Z 21009KT 28/15 A3011 RMK A01 T02760148  RH  045%=      5-min Rain = 0
KVA1 110921Z 21009KT 28/15 A3011 RMK A01 T02770148  RH  045%=      5-min Rain = 0
KVA1 110922Z 21010KT 28/15 A3011 RMK A01 T02780147  RH  045%=      5-min Rain = 0
KVA1 110923Z 21009KT 28/15 A3011 RMK A01 T02790148  RH  045%=      5-min Rain = 0
KVA1 110924Z 20010KT 28/15 A3011 RMK A01 T02790147  RH  045%=      5-min Rain = 0
KVA1 110925Z 20008KT 28/15 A3011 RMK A01 T02790147  RH  045%=      5-min Rain = 0
KVA1 110926Z 20008KT 28/15 A3011 RMK A01 T02790147  RH  045%=      5-min Rain = 0
KVA1 110927Z 20008KT 28/15 A3011 RMK A01 T02780147  RH  045%=      5-min Rain = 0
KVA1 110928Z 20007KT 28/15 A3011 RMK A01 T02780147  RH  045%=      5-min Rain = 0
KVA1 110929Z 19005KT 28/15 A3011 RMK A01 T02780147  RH  045%=      5-min Rain = 0
KVA1 110930Z 19006KT 28/15 A3011 RMK A01 T02770147  RH  045%=      5-min Rain = 0
KVA1 110931Z 20006KT 28/15 A3011 RMK A01 T02770146  RH  045%=      5-min Rain = 0
KVA1 110932Z 20006KT 28/15 A3011 RMK A01 T02760146  RH  045%=      5-min Rain = 0
KVA1 110933Z 21005KT 28/15 A3011 RMK A01 T02770146  RH  045%=      5-min Rain = 0
KVA1 110934Z 21005KT 28/15 A3011 RMK A01 T02770146  RH  045%=      5-min Rain = 0
KVA1 110935Z 20006KT 28/15 A3011 RMK A01 T02770146  RH  045%=      5-min Rain = 0
KVA1 110936Z 21006KT 28/15 A3011 RMK A01 T02770147  RH  045%=      5-min Rain = 0
KVA1 110937Z 22005KT 28/15 A3011 RMK A01 T02770147  RH  045%=      5-min Rain = 0
KVA1 110938Z 23005KT 28/15 A3011 RMK A01 T02770146  RH  045%=      5-min Rain = 0
KVA1 110939Z 24005KT 28/15 A3011 RMK A01 T02770147  RH  045%=      5-min Rain = 0
KVA1 110940Z 23005KT 28/15 A3011 RMK A01 T02760147  RH  045%=      5-min Rain = 0
KVA1 110941Z 25004KT 28/15 A3011 RMK A01 T02760147  RH  045%=      5-min Rain = 0
KVA1 110942Z 27003KT 28/15 A3011 RMK A01 T02750146  RH  045%=      5-min Rain = 0
KVA1 110943Z 27003KT 27/15 A3011 RMK A01 T02740146  RH  045%=      5-min Rain = 0
KVA1 110944Z 27004KT 27/15 A3011 RMK A01 T02730146  RH  046%=      5-min Rain = 0
KVA1 110945Z 29003KT 27/15 A3011 RMK A01 T02720146  RH  046%=      5-min Rain = 0
KVA1 110946Z 30004KT 27/15 A3011 RMK A01 T02700145  RH  046%=      5-min Rain = 0
KVA1 110947Z 30004KT 27/15 A3011 RMK A01 T02680145  RH  047%=      5-min Rain = 0
KVA1 110948Z 29003KT 27/15 A3011 RMK A01 T02670145  RH  047%=      5-min Rain = 0
KVA1 110949Z 28003KT 27/15 A3011 RMK A01 T02660145  RH  047%=      5-min Rain = 0
KVA1 110950Z 28003KT 27/15 A3011 RMK A01 T02650145  RH  048%=      5-min Rain = 0
KVA1 110951Z 27003KT 26/15 A3011 RMK A01 T02640145  RH  048%=      5-min Rain = 0
KVA1 110952Z 25003KT 26/15 A3011 RMK A01 T02640146  RH  048%=      5-min Rain = 0
KVA1 110953Z 24002KT 26/15 A3011 RMK A01 T02630146  RH  048%=      5-min Rain = 0
KVA1 110954Z 24003KT 26/15 A3011 RMK A01 T02630146  RH  048%=      5-min Rain = 0
KVA1 110955Z 24003KT 26/15 A3011 RMK A01 T02630147  RH  049%=      5-min Rain = 0
KVA1 110956Z 25004KT 26/15 A3011 RMK A01 T02640146  RH  048%=      5-min Rain = 0
KVA1 110957Z 27004KT 26/15 A3011 RMK A01 T02640146  RH  048%=      5-min Rain = 0
KVA1 110958Z 28004KT 26/15 A3011 RMK A01 T02630146  RH  048%=      5-min Rain = 0
KVA1 110959Z 28004KT 26/15 A3011 RMK A01 T02620145  RH  049%=      5-min Rain = 0
KVA1 111000Z 29004KT 26/15 A3011 RMK A01 T02600145  RH  049%=      5-min Rain = 0
KVA1 111001Z 30003KT 26/15 A3011 RMK A01 T02590145  RH  049%=      5-min Rain = 0
KVA1 111002Z 31003KT 26/15 A3011 RMK A01 T02590145  RH  049%=      5-min Rain = 0
KVA1 111003Z 30003KT 26/15 A3011 RMK A01 T02580145  RH  050%=      5-min Rain = 0
KVA1 111004Z 31003KT 26/15 A3011 RMK A01 T02580146  RH  050%=      5-min Rain = 0
KVA1 111005Z 29003KT 26/15 A3011 RMK A01 T02600146  RH  049%=      5-min Rain = 0
KVA1 111006Z 28001KT 26/15 A3011 RMK A01 T02610146  RH  049%=      5-min Rain = 0
KVA1 111007Z 04000KT 26/15 A3012 RMK A01 T02610145  RH  049%=      5-min Rain = 0
KVA1 111008Z 08001KT 26/15 A3012 RMK A01 T02600146  RH  049%=      5-min Rain = 0
KVA1 111009Z 10003KT 26/15 A3011 RMK A01 T02600146  RH  049%=      5-min Rain = 0
KVA1 111010Z 14004KT 26/15 A3011 RMK A01 T02600147  RH  049%=      5-min Rain = 0
KVA1 111011Z 17004KT 26/15 A3011 RMK A01 T02610147  RH  049%=      5-min Rain = 0
KVA1 111012Z 17004KT 26/15 A3011 RMK A01 T02630147  RH  049%=      5-min Rain = 0
KVA1 111013Z 20005KT 27/15 A3011 RMK A01 T02650147  RH  048%=      5-min Rain = 0
KVA1 111014Z 20004KT 27/15 A3011 RMK A01 T02660147  RH  048%=      5-min Rain = 0
KVA1 111015Z 21003KT 27/15 A3011 RMK A01 T02660147  RH  048%=      5-min Rain = 0
KVA1 111016Z 20005KT 27/15 A3011 RMK A01 T02660146  RH  048%=      5-min Rain = 0
KVA1 111017Z 23003KT 27/15 A3011 RMK A01 T02650146  RH  048%=      5-min Rain = 0
KVA1 111018Z 23004KT 26/15 A3011 RMK A01 T02640146  RH  048%=      5-min Rain = 0
KVA1 111019Z 23003KT 26/15 A3011 RMK A01 T02630145  RH  048%=      5-min Rain = 0
KVA1 111020Z 24003KT 26/15 A3011 RMK A01 T02620145  RH  049%=      5-min Rain = 0
KVA1 111021Z 25004KT 26/15 A3011 RMK A01 T02620145  RH  049%=      5-min Rain = 0
KVA1 111022Z 25003KT 26/15 A3011 RMK A01 T02620146  RH  049%=      5-min Rain = 0
KVA1 111023Z 26004KT 26/15 A3011 RMK A01 T02620146  RH  049%=      5-min Rain = 0
KVA1 111024Z 26003KT 26/15 A3011 RMK A01 T02620146  RH  049%=      5-min Rain = 0
KVA1 111025Z 29003KT 26/15 A3011 RMK A01 T02630146  RH  049%=      5-min Rain = 0
KVA1 111026Z 28004KT 26/15 A3011 RMK A01 T02630146  RH  048%=      5-min Rain = 0
KVA1 111027Z 30004KT 26/15 A3011 RMK A01 T02620145  RH  049%=      5-min Rain = 0
KVA1 111028Z 30004KT 26/15 A3011 RMK A01 T02610145  RH  049%=      5-min Rain = 0
KVA1 111029Z 30004KT 26/14 A3011 RMK A01 T02590144  RH  049%=      5-min Rain = 0
KVA1 111030Z 30003KT 26/14 A3011 RMK A01 T02570143  RH  049%=      5-min Rain = 0
KVA1 111031Z 26002KT 26/14 A3011 RMK A01 T02560143  RH  050%=      5-min Rain = 0
KVA1 111032Z 23002KT 26/14 A3011 RMK A01 T02550144  RH  050%=      5-min Rain = 0
KVA1 111033Z 24003KT 26/14 A3011 RMK A01 T02550144  RH  050%=      5-min Rain = 0
KVA1 111034Z 25003KT 26/14 A3011 RMK A01 T02550144  RH  050%=      5-min Rain = 0
KVA1 111035Z 24003KT 26/14 A3011 RMK A01 T02550144  RH  050%=      5-min Rain = 0
KVA1 111036Z 24004KT 26/14 A3011 RMK A01 T02550144  RH  050%=      5-min Rain = 0
KVA1 111037Z 25004KT 26/14 A3011 RMK A01 T02550144  RH  050%=      5-min Rain = 0
KVA1 111038Z 24005KT 25/14 A3011 RMK A01 T02540143  RH  050%=      5-min Rain = 0
KVA1 111039Z 25005KT 25/14 A3011 RMK A01 T02520142  RH  051%=      5-min Rain = 0
KVA1 111040Z 26005KT 25/14 A3011 RMK A01 T02510142  RH  051%=      5-min Rain = 0
KVA1 111041Z 25006KT 25/14 A3011 RMK A01 T02500142  RH  051%=      5-min Rain = 0
KVA1 111042Z 26006KT 25/14 A3011 RMK A01 T02500143  RH  051%=      5-min Rain = 0
KVA1 111043Z 26006KT 25/15 A3011 RMK A01 T02530145  RH  051%=      5-min Rain = 0
KVA1 111044Z 26007KT 26/15 A3011 RMK A01 T02550145  RH  051%=      5-min Rain = 0
KVA1 111045Z 25006KT 26/14 A3011 RMK A01 T02560144  RH  050%=      5-min Rain = 0
KVA1 111046Z 26006KT 26/15 A3011 RMK A01 T02570145  RH  050%=      5-min Rain = 0
KVA1 111047Z 24005KT 26/15 A3012 RMK A01 T02580145  RH  050%=      5-min Rain = 0
KVA1 111048Z 25003KT 26/15 A3012 RMK A01 T02590145  RH  049%=      5-min Rain = 0
KVA1 111049Z 25003KT 26/15 A3012 RMK A01 T02590145  RH  049%=      5-min Rain = 0
KVA1 111050Z 26005KT 26/14 A3012 RMK A01 T02580144  RH  049%=      5-min Rain = 0
KVA1 111051Z 26005KT 26/14 A3012 RMK A01 T02580144  RH  049%=      5-min Rain = 0
KVA1 111052Z 25005KT 26/14 A3012 RMK A01 T02570143  RH  050%=      5-min Rain = 0
KVA1 111053Z 25005KT 26/14 A3012 RMK A01 T02560143  RH  050%=      5-min Rain = 0
KVA1 111054Z 26005KT 26/14 A3012 RMK A01 T02560144  RH  050%=      5-min Rain = 0
KVA1 111055Z 26006KT 26/14 A3012 RMK A01 T02560144  RH  050%=      5-min Rain = 0
KVA1 111056Z 27006KT 26/14 A3012 RMK A01 T02560144  RH  050%=      5-min Rain = 0
KVA1 111057Z 27006KT 26/14 A3012 RMK A01 T02560144  RH  050%=      5-min Rain = 0
KVA1 111058Z 26006KT 26/14 A3012 RMK A01 T02560144  RH  050%=      5-min Rain = 0
KVA1 111059Z 26007KT 26/14 A3012 RMK A01 T02550144  RH  050%=      5-min Rain = 0
KVA1 111100Z 26007KT 26/14 A3012 RMK A01 T02550144  RH  050%=      5-min Rain = 0
KVA1 111101Z 25007KT 26/14 A3012 RMK A01 T02560144  RH  050%=      5-min Rain = 0
KVA1 111102Z 25007KT 26/14 A3012 RMK A01 T02570144  RH  050%=      5-min Rain = 0
KVA1 111103Z 25007KT 26/14 A3012 RMK A01 T02570144  RH  050%=      5-min Rain = 0
KVA1 111104Z 25006KT 26/14 A3012 RMK A01 T02570144  RH  050%=      5-min Rain = 0
KVA1 111105Z 24006KT 26/14 A3012 RMK A01 T02560144  RH  050%=      5-min Rain = 0
KVA1 111106Z 24006KT 26/14 A3012 RMK A01 T02560144  RH  050%=      5-min Rain = 0
KVA1 111107Z 23005KT 26/14 A3012 RMK A01 T02560144  RH  050%=      5-min Rain = 0
KVA1 111108Z 24006KT 26/14 A3013 RMK A01 T02570144  RH  050%=      5-min Rain = 0
KVA1 111109Z 22006KT 26/15 A3013 RMK A01 T02570145  RH  050%=      5-min Rain = 0
KVA1 111110Z 23005KT 26/14 A3013 RMK A01 T02570144  RH  050%=      5-min Rain = 0
KVA1 111111Z 24006KT 26/14 A3013 RMK A01 T02570144  RH  050%=      5-min Rain = 0
KVA1 111112Z 24005KT 26/15 A3013 RMK A01 T02570145  RH  050%=      5-min Rain = 0
KVA1 111113Z 24005KT 26/15 A3013 RMK A01 T02580145  RH  050%=      5-min Rain = 0
KVA1 111114Z 23005KT 26/14 A3013 RMK A01 T02580144  RH  050%=      5-min Rain = 0
KVA1 111115Z 23006KT 26/15 A3013 RMK A01 T02580145  RH  050%=      5-min Rain = 0
KVA1 111116Z 24005KT 26/14 A3013 RMK A01 T02570144  RH  050%=      5-min Rain = 0
KVA1 111117Z 24005KT 26/15 A3013 RMK A01 T02570145  RH  050%=      5-min Rain = 0
KVA1 111118Z 24005KT 26/15 A3013 RMK A01 T02570145  RH  050%=      5-min Rain = 0
KVA1 111119Z 23005KT 26/15 A3013 RMK A01 T02570145  RH  050%=      5-min Rain = 0
KVA1 111120Z 24004KT 26/14 A3013 RMK A01 T02560144  RH  050%=      5-min Rain = 0
KVA1 111121Z 24003KT 26/14 A3013 RMK A01 T02560144  RH  050%=      5-min Rain = 0
KVA1 111122Z 24004KT 26/14 A3013 RMK A01 T02560144  RH  050%=      5-min Rain = 0
KVA1 111123Z 25004KT 26/14 A3013 RMK A01 T02550144  RH  050%=      5-min Rain = 0
KVA1 111124Z 24004KT 26/14 A3013 RMK A01 T02550144  RH  050%=      5-min Rain = 0
KVA1 111125Z 22003KT 25/14 A3013 RMK A01 T02540144  RH  050%=      5-min Rain = 0
KVA1 111126Z 23003KT 25/14 A3013 RMK A01 T02540144  RH  051%=      5-min Rain = 0
KVA1 111127Z 23003KT 25/15 A3013 RMK A01 T02540145  RH  051%=      5-min Rain = 0
KVA1 111128Z 21005KT 25/14 A3013 RMK A01 T02540144  RH  051%=      5-min Rain = 0
KVA1 111129Z 22005KT 25/15 A3013 RMK A01 T02540145  RH  051%=      5-min Rain = 0
KVA1 111130Z 21006KT 25/14 A3013 RMK A01 T02540144  RH  051%=      5-min Rain = 0
KVA1 111131Z 21006KT 26/15 A3013 RMK A01 T02550145  RH  050%=      5-min Rain = 0
KVA1 111132Z 20006KT 26/15 A3013 RMK A01 T02550145  RH  050%=      5-min Rain = 0
KVA1 111133Z 20006KT 26/15 A3013 RMK A01 T02560145  RH  050%=      5-min Rain = 0
KVA1 111134Z 19006KT 26/15 A3013 RMK A01 T02560145  RH  050%=      5-min Rain = 0
KVA1 111135Z 20007KT 26/15 A3013 RMK A01 T02550145  RH  050%=      5-min Rain = 0
KVA1 111136Z 20007KT 26/15 A3013 RMK A01 T02560145  RH  050%=      5-min Rain = 0
KVA1 111137Z 21007KT 26/15 A3013 RMK A01 T02560145  RH  050%=      5-min Rain = 0
KVA1 111138Z 21007KT 26/15 A3013 RMK A01 T02550145  RH  050%=      5-min Rain = 0
KVA1 111139Z 21007KT 26/15 A3013 RMK A01 T02550145  RH  050%=      5-min Rain = 0
KVA1 111140Z 21007KT 25/15 A3013 RMK A01 T02540145  RH  051%=      5-min Rain = 0
KVA1 111141Z 21007KT 25/15 A3013 RMK A01 T02540145  RH  051%=      5-min Rain = 0
KVA1 111142Z 21007KT 25/14 A3013 RMK A01 T02540144  RH  051%=      5-min Rain = 0
KVA1 111143Z 21007KT 25/14 A3013 RMK A01 T02530144  RH  051%=      5-min Rain = 0
KVA1 111144Z 21007KT 25/14 A3013 RMK A01 T02530144  RH  051%=      5-min Rain = 0
KVA1 111145Z 21006KT 25/14 A3013 RMK A01 T02520144  RH  051%=      5-min Rain = 0
KVA1 111146Z 21006KT 25/14 A3013 RMK A01 T02510144  RH  051%=      5-min Rain = 0
KVA1 111147Z 21006KT 25/14 A3013 RMK A01 T02500144  RH  051%=      5-min Rain = 0
KVA1 111148Z 21005KT 25/14 A3013 RMK A01 T02500144  RH  052%=      5-min Rain = 0
KVA1 111149Z 21005KT 25/14 A3013 RMK A01 T02500144  RH  052%=      5-min Rain = 0
KVA1 111150Z 22005KT 25/14 A3013 RMK A01 T02500144  RH  052%=      5-min Rain = 0
KVA1 111151Z 23005KT 25/14 A3013 RMK A01 T02490143  RH  052%=      5-min Rain = 0
KVA1 111152Z 23005KT 25/14 A3013 RMK A01 T02490144  RH  052%=      5-min Rain = 0
KVA1 111153Z 24005KT 25/14 A3014 RMK A01 T02480143  RH  052%=      5-min Rain = 0
KVA1 111154Z 24005KT 25/14 A3014 RMK A01 T02470143  RH  052%=      5-min Rain = 0
KVA1 111155Z 25005KT 25/14 A3014 RMK A01 T02460143  RH  053%=      5-min Rain = 0
KVA1 111156Z 25005KT 25/14 A3014 RMK A01 T02450142  RH  053%=      5-min Rain = 0
KVA1 111157Z 24004KT 25/14 A3014 RMK A01 T02450142  RH  053%=      5-min Rain = 0
KVA1 111158Z 25004KT 24/14 A3014 RMK A01 T02440142  RH  053%=      5-min Rain = 0
KVA1 111159Z 26004KT 24/14 A3014 RMK A01 T02440142  RH  053%=      5-min Rain = 0
KVA1 111200Z 25004KT 24/14 A3014 RMK A01 T02430142  RH  053%=      5-min Rain = 0
KVA1 111201Z 26004KT 24/14 A3014 RMK A01 T02430143  RH  053%=      5-min Rain = 0
KVA1 111202Z 26004KT 24/14 A3014 RMK A01 T02430142  RH  053%=      5-min Rain = 0
KVA1 111203Z 26004KT 24/14 A3014 RMK A01 T02420142  RH  054%=      5-min Rain = 0
KVA1 111204Z 26003KT 24/14 A3014 RMK A01 T02420142  RH  054%=      5-min Rain = 0
KVA1 111205Z 25002KT 24/14 A3014 RMK A01 T02420142  RH  054%=      5-min Rain = 0
KVA1 111206Z 25002KT 24/14 A3014 RMK A01 T02410142  RH  054%=      5-min Rain = 0
KVA1 111207Z 24003KT 24/14 A3014 RMK A01 T02410142  RH  054%=      5-min Rain = 0
KVA1 111208Z 24003KT 24/14 A3014 RMK A01 T02410142  RH  054%=      5-min Rain = 0
KVA1 111209Z 24003KT 24/14 A3014 RMK A01 T02410142  RH  054%=      5-min Rain = 0
KVA1 111210Z 24004KT 24/14 A3014 RMK A01 T02410142  RH  054%=      5-min Rain = 0
KVA1 111211Z 24004KT 24/14 A3014 RMK A01 T02410142  RH  054%=      5-min Rain = 0
KVA1 111212Z 25004KT 24/14 A3014 RMK A01 T02410142  RH  054%=      5-min Rain = 0
KVA1 111213Z 25005KT 24/14 A3014 RMK A01 T02410142  RH  054%=      5-min Rain = 0
KVA1 111214Z 25005KT 24/14 A3014 RMK A01 T02410142  RH  054%=      5-min Rain = 0
KVA1 111215Z 25006KT 24/14 A3014 RMK A01 T02410142  RH  054%=      5-min Rain = 0
KVA1 111216Z 24005KT 24/14 A3014 RMK A01 T02410142  RH  054%=      5-min Rain = 0
KVA1 111217Z 25005KT 24/14 A3014 RMK A01 T02410142  RH  054%=      5-min Rain = 0
KVA1 111218Z 25005KT 24/14 A3014 RMK A01 T02410142  RH  054%=      5-min Rain = 0
KVA1 111219Z 25005KT 24/14 A3014 RMK A01 T02420142  RH  054%=      5-min Rain = 0
KVA1 111220Z 25005KT 24/14 A3014 RMK A01 T02430142  RH  053%=      5-min Rain = 0
KVA1 111221Z 25005KT 24/14 A3014 RMK A01 T02440143  RH  053%=      5-min Rain = 0
KVA1 111222Z 24005KT 24/14 A3014 RMK A01 T02440143  RH  053%=      5-min Rain = 0
KVA1 111223Z 24005KT 25/14 A3014 RMK A01 T02450143  RH  053%=      5-min Rain = 0
KVA1 111224Z 24005KT 25/14 A3014 RMK A01 T02450143  RH  053%=      5-min Rain = 0
KVA1 111225Z 24005KT 25/14 A3014 RMK A01 T02460143  RH  053%=      5-min Rain = 0
KVA1 111226Z 24006KT 25/14 A3014 RMK A01 T02460143  RH  053%=      5-min Rain = 0
KVA1 111227Z 24005KT 25/14 A3014 RMK A01 T02460143  RH  052%=      5-min Rain = 0
KVA1 111228Z 25006KT 25/14 A3014 RMK A01 T02470143  RH  052%=      5-min Rain = 0
KVA1 111229Z 25006KT 25/14 A3014 RMK A01 T02480143  RH  052%=      5-min Rain = 0
KVA1 111230Z 24006KT 25/14 A3014 RMK A01 T02480143  RH  052%=      5-min Rain = 0
KVA1 111231Z 24007KT 25/14 A3014 RMK A01 T02480143  RH  052%=      5-min Rain = 0
KVA1 111232Z 24007KT 25/14 A3014 RMK A01 T02490143  RH  052%=      5-min Rain = 0
KVA1 111233Z 24007KT 25/14 A3014 RMK A01 T02490143  RH  052%=      5-min Rain = 0
KVA1 111234Z 24007KT 25/14 A3014 RMK A01 T02500143  RH  052%=      5-min Rain = 0
KVA1 111235Z 24007KT 25/14 A3014 RMK A01 T02500143  RH  051%=      5-min Rain = 0
KVA1 111236Z 24007KT 25/14 A3014 RMK A01 T02510143  RH  051%=      5-min Rain = 0
KVA1 111237Z 23006KT 25/14 A3014 RMK A01 T02520144  RH  051%=      5-min Rain = 0
KVA1 111238Z 24006KT 25/14 A3014 RMK A01 T02520143  RH  051%=      5-min Rain = 0
KVA1 111239Z 23007KT 25/14 A3014 RMK A01 T02520143  RH  051%=      5-min Rain = 0
KVA1 111240Z 24006KT 25/14 A3014 RMK A01 T02520143  RH  051%=      5-min Rain = 0
KVA1 111241Z 24007KT 25/14 A3014 RMK A01 T02520143  RH  051%=      5-min Rain = 0
KVA1 111242Z 24007KT 25/14 A3014 RMK A01 T02530143  RH  051%=      5-min Rain = 0
KVA1 111243Z 24007KT 25/14 A3014 RMK A01 T02530143  RH  051%=      5-min Rain = 0
KVA1 111244Z 23007KT 25/14 A3014 RMK A01 T02530143  RH  050%=      5-min Rain = 0
KVA1 111245Z 23007KT 25/14 A3014 RMK A01 T02530143  RH  050%=      5-min Rain = 0
KVA1 111246Z 23007KT 25/14 A3014 RMK A01 T02530143  RH  050%=      5-min Rain = 0
KVA1 111247Z 23007KT 25/14 A3014 RMK A01 T02540143  RH  050%=      5-min Rain = 0
KVA1 111248Z 22007KT 25/14 A3014 RMK A01 T02540143  RH  050%=      5-min Rain = 0
KVA1 111249Z 22005KT 25/14 A3015 RMK A01 T02540143  RH  050%=      5-min Rain = 0
KVA1 111250Z 21007KT 25/14 A3015 RMK A01 T02540143  RH  050%=      5-min Rain = 0
KVA1 111251Z 21008KT 25/14 A3015 RMK A01 T02540143  RH  050%=      5-min Rain = 0
KVA1 111252Z 21007KT 26/14 A3015 RMK A01 T02550143  RH  050%=      5-min Rain = 0
KVA1 111253Z 21006KT 26/14 A3015 RMK A01 T02550143  RH  050%=      5-min Rain = 0
KVA1 111254Z 20008KT 26/14 A3015 RMK A01 T02550143  RH  050%=      5-min Rain = 0
KVA1 111255Z 20008KT 26/14 A3015 RMK A01 T02560143  RH  050%=      5-min Rain = 0
KVA1 111256Z 21007KT 26/14 A3015 RMK A01 T02560143  RH  050%=      5-min Rain = 0
KVA1 111257Z 20008KT 26/14 A3014 RMK A01 T02560143  RH  050%=      5-min Rain = 0
KVA1 111258Z 21008KT 26/14 A3014 RMK A01 T02560143  RH  050%=      5-min Rain = 0
KVA1 111259Z 20009KT 26/14 A3014 RMK A01 T02560143  RH  050%=      5-min Rain = 0
KVA1 111300Z 21009KT 26/14 A3014 RMK A01 T02560143  RH  050%=      5-min Rain = 0
KVA1 111301Z 21010KT 26/14 A3014 RMK A01 T02570143  RH  050%=      5-min Rain = 0
KVA1 111302Z 20009KT 26/14 A3014 RMK A01 T02570143  RH  049%=      5-min Rain = 0
KVA1 111303Z 20009KT 26/14 A3014 RMK A01 T02570143  RH  050%=      5-min Rain = 0
KVA1 111304Z 21010KT 26/14 A3014 RMK A01 T02560143  RH  049%=      5-min Rain = 0
KVA1 111305Z 20010KT 26/14 A3014 RMK A01 T02570143  RH  049%=      5-min Rain = 0
KVA1 111306Z 20011KT 26/14 A3014 RMK A01 T02560143  RH  049%=      5-min Rain = 0
KVA1 111307Z 21009KT 26/14 A3014 RMK A01 T02560143  RH  049%=      5-min Rain = 0
KVA1 111308Z 20008KT 26/14 A3014 RMK A01 T02560143  RH  049%=      5-min Rain = 0
KVA1 111309Z 20006KT 26/14 A3014 RMK A01 T02560143  RH  050%=      5-min Rain = 0
KVA1 111310Z 20009KT 26/14 A3014 RMK A01 T02560143  RH  049%=      5-min Rain = 0
KVA1 111311Z 21009KT 26/14 A3014 RMK A01 T02560143  RH  049%=      5-min Rain = 0
KVA1 111312Z 21009KT 26/14 A3015 RMK A01 T02560143  RH  049%=      5-min Rain = 0
KVA1 111313Z 21008KT 26/14 A3015 RMK A01 T02560143  RH  049%=      5-min Rain = 0
KVA1 111314Z 20008KT 26/14 A3015 RMK A01 T02560143  RH  049%=      5-min Rain = 0
KVA1 111315Z 20008KT 26/14 A3015 RMK A01 T02560143  RH  049%=      5-min Rain = 0
KVA1 111316Z 21008KT 26/14 A3015 RMK A01 T02570143  RH  049%=      5-min Rain = 0
KVA1 111317Z 20009KT 26/14 A3015 RMK A01 T02560143  RH  049%=      5-min Rain = 0
KVA1 111318Z 20009KT 26/14 A3015 RMK A01 T02570143  RH  049%=      5-min Rain = 0
KVA1 111319Z 21008KT 26/14 A3016 RMK A01 T02560143  RH  050%=      5-min Rain = 0
KVA1 111320Z 21009KT 26/14 A3016 RMK A01 T02560142  RH  049%=      5-min Rain = 0
KVA1 111321Z 21008KT 26/14 A3016 RMK A01 T02560143  RH  049%=      5-min Rain = 0
KVA1 111322Z 20008KT 26/14 A3016 RMK A01 T02560143  RH  049%=      5-min Rain = 0
KVA1 111323Z 20008KT 26/14 A3016 RMK A01 T02570143  RH  049%=      5-min Rain = 0
KVA1 111324Z 20009KT 26/14 A3016 RMK A01 T02570143  RH  049%=      5-min Rain = 0
KVA1 111325Z 20008KT 26/14 A3016 RMK A01 T02570143  RH  049%=      5-min Rain = 0
KVA1 111326Z 20009KT 26/14 A3016 RMK A01 T02570143  RH  049%=      5-min Rain = 0
KVA1 111327Z 20009KT 26/14 A3016 RMK A01 T02580143  RH  049%=      5-min Rain = 0
KVA1 111328Z 20010KT 26/14 A3016 RMK A01 T02580143  RH  049%=      5-min Rain = 0
KVA1 111329Z 20010KT 26/14 A3016 RMK A01 T02590143  RH  049%=      5-min Rain = 0
KVA1 111330Z 20008KT 26/14 A3016 RMK A01 T02590143  RH  049%=      5-min Rain = 0
KVA1 111331Z 19008KT 26/14 A3016 RMK A01 T02590143  RH  049%=      5-min Rain = 0
KVA1 111332Z 19009KT 26/14 A3016 RMK A01 T02600143  RH  049%=      5-min Rain = 0
KVA1 111333Z 19010KT 26/14 A3016 RMK A01 T02600143  RH  048%=      5-min Rain = 0
KVA1 111334Z 19010KT 26/14 A3016 RMK A01 T02610143  RH  048%=      5-min Rain = 0
KVA1 111335Z 19009KT 26/14 A3016 RMK A01 T02610143  RH  048%=      5-min Rain = 0
KVA1 111336Z 20008KT 26/14 A3016 RMK A01 T02620143  RH  048%=      5-min Rain = 0
KVA1 111337Z 19009KT 26/14 A3016 RMK A01 T02630143  RH  048%=      5-min Rain = 0
KVA1 111338Z 19008KT 26/14 A3016 RMK A01 T02630142  RH  048%=      5-min Rain = 0
KVA1 111339Z 19008KT 26/14 A3016 RMK A01 T02630143  RH  048%=      5-min Rain = 0
KVA1 111340Z 19008KT 26/14 A3016 RMK A01 T02640143  RH  047%=      5-min Rain = 0
KVA1 111341Z 20007KT 27/14 A3016 RMK A01 T02650143  RH  047%=      5-min Rain = 0
KVA1 111342Z 19009KT 27/14 A3016 RMK A01 T02660143  RH  047%=      5-min Rain = 0
KVA1 111343Z 19009KT 27/14 A3016 RMK A01 T02660142  RH  046%=      5-min Rain = 0
KVA1 111344Z 19008KT 27/14 A3016 RMK A01 T02670143  RH  046%=      5-min Rain = 0
KVA1 111345Z 20007KT 27/14 A3016 RMK A01 T02670143  RH  046%=      5-min Rain = 0
KVA1 111346Z 20007KT 27/14 A3016 RMK A01 T02680143  RH  046%=      5-min Rain = 0
KVA1 111347Z 20006KT 27/14 A3016 RMK A01 T02690143  RH  046%=      5-min Rain = 0
KVA1 111348Z 19007KT 27/14 A3016 RMK A01 T02700143  RH  046%=      5-min Rain = 0
KVA1 111349Z 20007KT 27/14 A3016 RMK A01 T02710143  RH  045%=      5-min Rain = 0
KVA1 111350Z 20008KT 27/14 A3016 RMK A01 T02720143  RH  045%=      5-min Rain = 0
KVA1 111351Z 20007KT 27/14 A3016 RMK A01 T02720143  RH  045%=      5-min Rain = 0
KVA1 111352Z 20006KT 27/14 A3016 RMK A01 T02720142  RH  045%=      5-min Rain = 0
KVA1 111353Z 19007KT 27/14 A3016 RMK A01 T02730143  RH  045%=      5-min Rain = 0
KVA1 111354Z 20007KT 27/14 A3016 RMK A01 T02740142  RH  044%=      5-min Rain = 0
KVA1 111355Z 20007KT 28/14 A3016 RMK A01 T02750143  RH  044%=      5-min Rain = 0
KVA1 111356Z 19006KT 28/14 A3016 RMK A01 T02760143  RH  044%=      5-min Rain = 0
KVA1 111357Z 20007KT 28/14 A3017 RMK A01 T02760143  RH  044%=      5-min Rain = 0
KVA1 111358Z 20006KT 28/14 A3017 RMK A01 T02760143  RH  044%=      5-min Rain = 0
KVA1 111359Z 20008KT 28/14 A3017 RMK A01 T02770142  RH  044%=      5-min Rain = 0
KVA1 111400Z 20007KT 28/14 A3017 RMK A01 T02770141  RH  043%=      5-min Rain = 0
KVA1 111401Z 19006KT 28/14 A3017 RMK A01 T02780142  RH  043%=      5-min Rain = 0
KVA1 111402Z 19008KT 28/14 A3017 RMK A01 T02790141  RH  043%=      5-min Rain = 0
KVA1 111403Z 20005KT 28/14 A3017 RMK A01 T02800141  RH  043%=      5-min Rain = 0
KVA1 111404Z 20006KT 28/14 A3017 RMK A01 T02820142  RH  042%=      5-min Rain = 0
KVA1 111405Z 20006KT 28/14 A3017 RMK A01 T02830142  RH  042%=      5-min Rain = 0
KVA1 111406Z 20006KT 28/14 A3017 RMK A01 T02830140  RH  042%=      5-min Rain = 0
KVA1 111407Z 20007KT 28/14 A3017 RMK A01 T02830141  RH  042%=      5-min Rain = 0
KVA1 111408Z 20004KT 28/14 A3017 RMK A01 T02820140  RH  042%=      5-min Rain = 0
KVA1 111409Z 21006KT 28/14 A3017 RMK A01 T02820141  RH  042%=      5-min Rain = 0
KVA1 111410Z 21005KT 28/14 A3017 RMK A01 T02810141  RH  042%=      5-min Rain = 0
KVA1 111411Z 21004KT 28/14 A3017 RMK A01 T02810141  RH  042%=      5-min Rain = 0
KVA1 111412Z 22005KT 28/14 A3017 RMK A01 T02820141  RH  042%=      5-min Rain = 0
KVA1 111413Z 21005KT 28/14 A3017 RMK A01 T02840142  RH  042%=      5-min Rain = 0
KVA1 111414Z 20004KT 29/14 A3018 RMK A01 T02850141  RH  041%=      5-min Rain = 0
KVA1 111415Z 20005KT 29/14 A3018 RMK A01 T02850141  RH  041%=      5-min Rain = 0
KVA1 111416Z 19005KT 29/14 A3018 RMK A01 T02860140  RH  041%=      5-min Rain = 0
KVA1 111417Z 20005KT 29/14 A3018 RMK A01 T02850141  RH  041%=      5-min Rain = 0
KVA1 111418Z 20005KT 29/14 A3018 RMK A01 T02850140  RH  041%=      5-min Rain = 0
KVA1 111419Z 19005KT 29/14 A3018 RMK A01 T02860140  RH  041%=      5-min Rain = 0
KVA1 111420Z 21004KT 29/14 A3018 RMK A01 T02860140  RH  041%=      5-min Rain = 0
KVA1 111421Z 20004KT 29/14 A3018 RMK A01 T02870141  RH  041%=      5-min Rain = 0
KVA1 111422Z 18005KT 29/14 A3018 RMK A01 T02860140  RH  041%=      5-min Rain = 0
KVA1 111423Z 20004KT 29/14 A3018 RMK A01 T02870140  RH  041%=      5-min Rain = 0
KVA1 111424Z 19004KT 29/14 A3018 RMK A01 T02870141  RH  041%=      5-min Rain = 0
KVA1 111425Z 18004KT 29/14 A3018 RMK A01 T02880141  RH  041%=      5-min Rain = 0
KVA1 111426Z 19004KT 29/14 A3018 RMK A01 T02880142  RH  041%=      5-min Rain = 0
KVA1 111427Z 17004KT 29/14 A3018 RMK A01 T02890142  RH  041%=      5-min Rain = 0
KVA1 111428Z 16004KT 29/14 A3018 RMK A01 T02900140  RH  040%=      5-min Rain = 0
KVA1 111429Z 17003KT 29/14 A3018 RMK A01 T02900140  RH  040%=      5-min Rain = 0
KVA1 111430Z 15004KT 29/14 A3018 RMK A01 T02910142  RH  040%=      5-min Rain = 0
KVA1 111431Z 13004KT 29/14 A3018 RMK A01 T02920142  RH  040%=      5-min Rain = 0
KVA1 111432Z 13002KT 29/14 A3018 RMK A01 T02920140  RH  039%=      5-min Rain = 0
KVA1 111433Z 16002KT 29/14 A3018 RMK A01 T02940141  RH  039%=      5-min Rain = 0
KVA1 111434Z 15002KT 30/14 A3018 RMK A01 T02950141  RH  039%=      5-min Rain = 0
KVA1 111435Z 11001KT 30/14 A3018 RMK A01 T02960141  RH  039%=      5-min Rain = 0
KVA1 111436Z 08000KT 30/14 A3018 RMK A01 T02960141  RH  039%=      5-min Rain = 0
KVA1 111437Z 16001KT 30/14 A3018 RMK A01 T02960142  RH  039%=      5-min Rain = 0
KVA1 111438Z 06000KT 30/14 A3018 RMK A01 T02980142  RH  038%=      5-min Rain = 0
KVA1 111439Z 11001KT 30/14 A3018 RMK A01 T03000142  RH  038%=      5-min Rain = 0
KVA1 111440Z 12002KT 30/14 A3018 RMK A01 T03010143  RH  038%=      5-min Rain = 0
KVA1 111441Z 09002KT 30/14 A3018 RMK A01 T03010143  RH  038%=      5-min Rain = 0
KVA1 111442Z 05002KT 30/14 A3018 RMK A01 T03010142  RH  038%=      5-min Rain = 0
KVA1 111443Z 04002KT 30/14 A3018 RMK A01 T03020142  RH  038%=      5-min Rain = 0
KVA1 111444Z 04001KT 30/14 A3018 RMK A01 T03020142  RH  038%=      5-min Rain = 0
KVA1 111445Z 05000KT 30/14 A3018 RMK A01 T03010141  RH  038%=      5-min Rain = 0
KVA1 111446Z 15001KT 30/14 A3019 RMK A01 T03010141  RH  038%=      5-min Rain = 0
KVA1 111447Z 17000KT 30/14 A3019 RMK A01 T03030141  RH  037%=      5-min Rain = 0
KVA1 111448Z 10000KT 30/14 A3019 RMK A01 T03030141  RH  037%=      5-min Rain = 0
KVA1 111449Z 12001KT 30/14 A3018 RMK A01 T03030141  RH  037%=      5-min Rain = 0
KVA1 111450Z 00000KT 30/14 A3018 RMK A01 T03040141  RH  037%=      5-min Rain = 0
KVA1 111451Z 11000KT 30/14 A3018 RMK A01 T03040141  RH  037%=      5-min Rain = 0
KVA1 111452Z 14001KT 31/14 A3018 RMK A01 T03050141  RH  037%=      5-min Rain = 0
KVA1 111453Z 15001KT 31/14 A3018 RMK A01 T03060142  RH  037%=      5-min Rain = 0
KVA1 111454Z 15001KT 31/14 A3018 RMK A01 T03070143  RH  037%=      5-min Rain = 0
KVA1 111455Z 04000KT 31/14 A3018 RMK A01 T03070142  RH  037%=      5-min Rain = 0
KVA1 111456Z 06001KT 31/14 A3018 RMK A01 T03070142  RH  037%=      5-min Rain = 0
KVA1 111457Z 12003KT 31/14 A3018 RMK A01 T03070143  RH  037%=      5-min Rain = 0
KVA1 111458Z 14004KT 31/14 A3018 RMK A01 T03070143  RH  037%=      5-min Rain = 0
KVA1 111459Z 17002KT 31/14 A3018 RMK A01 T03060143  RH  037%=      5-min Rain = 0
KVA1 111500Z 16003KT 31/14 A3018 RMK A01 T03060143  RH  037%=      5-min Rain = 0
KVA1 111501Z 15002KT 31/14 A3019 RMK A01 T03060143  RH  037%=      5-min Rain = 0
KVA1 111502Z 09001KT 31/14 A3019 RMK A01 T03060144  RH  037%=      5-min Rain = 0
KVA1 111503Z 05000KT 31/14 A3019 RMK A01 T03070143  RH  037%=      5-min Rain = 0
KVA1 111504Z 08001KT 31/14 A3019 RMK A01 T03070142  RH  037%=      5-min Rain = 0
KVA1 111505Z 09001KT 31/14 A3019 RMK A01 T03070142  RH  037%=      5-min Rain = 0
KVA1 111506Z 09001KT 31/14 A3019 RMK A01 T03080144  RH  037%=      5-min Rain = 0
KVA1 111507Z 09002KT 31/15 A3019 RMK A01 T03080145  RH  037%=      5-min Rain = 0
KVA1 111508Z 12003KT 31/15 A3019 RMK A01 T03090145  RH  037%=      5-min Rain = 0
KVA1 111509Z 12003KT 31/15 A3019 RMK A01 T03090145  RH  037%=      5-min Rain = 0
KVA1 111510Z 14003KT 31/14 A3018 RMK A01 T03110142  RH  036%=      5-min Rain = 0
KVA1 111511Z 15004KT 31/14 A3018 RMK A01 T03110142  RH  036%=      5-min Rain = 0
KVA1 111512Z 17003KT 31/14 A3018 RMK A01 T03120143  RH  036%=      5-min Rain = 0
KVA1 111513Z 12003KT 31/14 A3018 RMK A01 T03110143  RH  036%=      5-min Rain = 0
KVA1 111514Z 11004KT 31/14 A3018 RMK A01 T03110142  RH  036%=      5-min Rain = 0
KVA1 111515Z 09002KT 31/14 A3018 RMK A01 T03110141  RH  036%=      5-min Rain = 0
KVA1 111516Z 06002KT 31/14 A3018 RMK A01 T03120140  RH  035%=      5-min Rain = 0
KVA1 111517Z 14002KT 31/14 A3018 RMK A01 T03120140  RH  035%=      5-min Rain = 0
KVA1 111518Z 17004KT 31/14 A3018 RMK A01 T03120141  RH  035%=      5-min Rain = 0
KVA1 111519Z 14004KT 31/14 A3018 RMK A01 T03140141  RH  035%=      5-min Rain = 0
KVA1 111520Z 14002KT 31/14 A3018 RMK A01 T03140141  RH  035%=      5-min Rain = 0
KVA1 111521Z 13000KT 32/14 A3018 RMK A01 T03150139  RH  034%=      5-min Rain = 0
KVA1 111522Z 06001KT 32/14 A3018 RMK A01 T03150139  RH  034%=      5-min Rain = 0
KVA1 111523Z 08002KT 32/14 A3018 RMK A01 T03150140  RH  034%=      5-min Rain = 0
KVA1 111524Z 09002KT 32/14 A3018 RMK A01 T03160140  RH  034%=      5-min Rain = 0
KVA1 111525Z 09003KT 32/14 A3018 RMK A01 T03150141  RH  035%=      5-min Rain = 0
KVA1 111526Z 11003KT 31/14 A3018 RMK A01 T03140142  RH  035%=      5-min Rain = 0
KVA1 111527Z 09006KT 32/14 A3018 RMK A01 T03150141  RH  035%=      5-min Rain = 0
KVA1 111528Z 09006KT 32/14 A3018 RMK A01 T03150141  RH  035%=      5-min Rain = 0
KVA1 111529Z 09005KT 31/14 A3018 RMK A01 T03140140  RH  035%=      5-min Rain = 0
KVA1 111530Z 12003KT 31/14 A3018 RMK A01 T03140141  RH  035%=      5-min Rain = 0
KVA1 111531Z 12004KT 31/14 A3018 RMK A01 T03140136  RH  034%=      5-min Rain = 0
KVA1 111532Z 09002KT 32/14 A3018 RMK A01 T03150137  RH  034%=      5-min Rain = 0
KVA1 111533Z 29000KT 32/14 A3018 RMK A01 T03150137  RH  034%=      5-min Rain = 0
KVA1 111534Z 30001KT 31/14 A3018 RMK A01 T03140137  RH  034%=      5-min Rain = 0
KVA1 111535Z 30000KT 31/14 A3018 RMK A01 T03140136  RH  034%=      5-min Rain = 0
KVA1 111536Z 24001KT 32/14 A3018 RMK A01 T03150137  RH  034%=      5-min Rain = 0
KVA1 111537Z 23001KT 32/14 A3018 RMK A01 T03170137  RH  033%=      5-min Rain = 0
KVA1 111538Z 20005KT 32/13 A3018 RMK A01 T03200134  RH  032%=      5-min Rain = 0
KVA1 111539Z 20005KT 32/13 A3018 RMK A01 T03200132  RH  032%=      5-min Rain = 0
KVA1 111540Z 18004KT 32/13 A3018 RMK A01 T03210134  RH  032%=      5-min Rain = 0
KVA1 111541Z 17002KT 32/13 A3018 RMK A01 T03190133  RH  032%=      5-min Rain = 0
KVA1 111542Z 04001KT 32/13 A3018 RMK A01 T03170133  RH  033%=      5-min Rain = 0
KVA1 111543Z 25001KT 32/13 A3018 RMK A01 T03170134  RH  033%=      5-min Rain = 0
KVA1 111544Z 23003KT 32/14 A3018 RMK A01 T03180135  RH  033%=      5-min Rain = 0
KVA1 111545Z 22002KT 32/14 A3018 RMK A01 T03190135  RH  033%=      5-min Rain = 0
KVA1 111546Z 22001KT 32/14 A3018 RMK A01 T03210135  RH  032%=      5-min Rain = 0
KVA1 111547Z 27000KT 32/13 A3018 RMK A01 T03210134  RH  032%=      5-min Rain = 0
KVA1 111548Z 31001KT 32/13 A3018 RMK A01 T03210134  RH  032%=      5-min Rain = 0
KVA1 111549Z 25000KT 32/14 A3018 RMK A01 T03230135  RH  032%=      5-min Rain = 0
KVA1 111550Z 14004KT 33/13 A3018 RMK A01 T03260132  RH  031%=      5-min Rain = 0
KVA1 111551Z 14004KT 33/13 A3018 RMK A01 T03290131  RH  030%=      5-min Rain = 0
KVA1 111552Z 16005KT 33/13 A3018 RMK A01 T03290129  RH  030%=      5-min Rain = 0
KVA1 111553Z 17006KT 33/13 A3018 RMK A01 T03290130  RH  030%=      5-min Rain = 0
KVA1 111554Z 18006KT 33/13 A3018 RMK A01 T03300130  RH  030%=      5-min Rain = 0
KVA1 111555Z 16005KT 33/13 A3018 RMK A01 T03290129  RH  030%=      5-min Rain = 0
KVA1 111556Z 16004KT 33/13 A3018 RMK A01 T03290128  RH  029%=      5-min Rain = 0
KVA1 111557Z 16003KT 33/13 A3018 RMK A01 T03280129  RH  030%=      5-min Rain = 0
KVA1 111558Z 16005KT 33/13 A3018 RMK A01 T03290131  RH  030%=      5-min Rain = 0
KVA1 111559Z 18006KT 33/13 A3018 RMK A01 T03310130  RH  030%=      5-min Rain = 0
KVA1 111600Z 17004KT 33/13 A3018 RMK A01 T03300129  RH  030%=      5-min Rain = 0
KVA1 111601Z 15002KT 33/13 A3018 RMK A01 T03270127  RH  030%=      5-min Rain = 0
KVA1 111602Z 16003KT 33/13 A3018 RMK A01 T03260127  RH  030%=      5-min Rain = 0
KVA1 111603Z 20002KT 33/13 A3018 RMK A01 T03260129  RH  030%=      5-min Rain = 0
KVA1 111604Z 22002KT 33/13 A3018 RMK A01 T03280128  RH  030%=      5-min Rain = 0
KVA1 111605Z 24002KT 33/13 A3018 RMK A01 T03270127  RH  030%=      5-min Rain = 0
KVA1 111606Z 29001KT 33/13 A3018 RMK A01 T03260126  RH  030%=      5-min Rain = 0
KVA1 111607Z 35000KT 33/13 A3018 RMK A01 T03250126  RH  030%=      5-min Rain = 0
KVA1 111608Z 24000KT 33/13 A3017 RMK A01 T03260127  RH  030%=      5-min Rain = 0
KVA1 111609Z 24001KT 33/13 A3017 RMK A01 T03260127  RH  030%=      5-min Rain = 0
KVA1 111610Z 26000KT 33/13 A3017 RMK A01 T03260127  RH  030%=      5-min Rain = 0
KVA1 111611Z 34001KT 33/13 A3017 RMK A01 T03260128  RH  030%=      5-min Rain = 0
KVA1 111612Z 33001KT 33/13 A3017 RMK A01 T03270128  RH  030%=      5-min Rain = 0
KVA1 111613Z 18002KT 33/13 A3017 RMK A01 T03290129  RH  030%=      5-min Rain = 0
KVA1 111614Z 24004KT 33/13 A3017 RMK A01 T03310129  RH  029%=      5-min Rain = 0
KVA1 111615Z 23004KT 34/13 A3017 RMK A01 T03350128  RH  029%=      5-min Rain = 0
KVA1 111616Z 22004KT 34/13 A3017 RMK A01 T03360128  RH  028%=      5-min Rain = 0
KVA1 111617Z 23004KT 34/13 A3017 RMK A01 T03350127  RH  028%=      5-min Rain = 0
KVA1 111618Z 21006KT 33/13 A3017 RMK A01 T03340126  RH  028%=      5-min Rain = 0
KVA1 111619Z 23004KT 33/13 A3017 RMK A01 T03340125  RH  028%=      5-min Rain = 0
KVA1 111620Z 23001KT 33/13 A3018 RMK A01 T03310125  RH  029%=      5-min Rain = 0
KVA1 111621Z 21001KT 33/12 A3018 RMK A01 T03300124  RH  029%=      5-min Rain = 0
KVA1 111622Z 18005KT 33/13 A3017 RMK A01 T03310125  RH  029%=      5-min Rain = 0
KVA1 111623Z 17006KT 33/13 A3017 RMK A01 T03330127  RH  029%=      5-min Rain = 0
KVA1 111624Z 17007KT 34/13 A3018 RMK A01 T03350127  RH  028%=      5-min Rain = 0
KVA1 111625Z 17006KT 34/13 A3018 RMK A01 T03350127  RH  028%=      5-min Rain = 0
KVA1 111626Z 17006KT 34/13 A3018 RMK A01 T03380127  RH  028%=      5-min Rain = 0
KVA1 111627Z 16007KT 34/13 A3017 RMK A01 T03390128  RH  028%=      5-min Rain = 0
KVA1 111628Z 15005KT 34/13 A3017 RMK A01 T03400127  RH  027%=      5-min Rain = 0
KVA1 111629Z 15005KT 34/13 A3017 RMK A01 T03400128  RH  028%=      5-min Rain = 0
KVA1 111630Z 15005KT 34/13 A3017 RMK A01 T03410125  RH  027%=      5-min Rain = 0
KVA1 111631Z 15004KT 34/13 A3017 RMK A01 T03390125  RH  027%=      5-min Rain = 0
KVA1 111632Z 18003KT 34/13 A3017 RMK A01 T03380126  RH  028%=      5-min Rain = 0
KVA1 111633Z 16005KT 34/13 A3017 RMK A01 T03380126  RH  028%=      5-min Rain = 0
KVA1 111634Z 16005KT 34/13 A3017 RMK A01 T03390127  RH  028%=      5-min Rain = 0
KVA1 111635Z 16005KT 34/13 A3017 RMK A01 T03410125  RH  027%=      5-min Rain = 0
KVA1 111636Z 18005KT 34/13 A3017 RMK A01 T03410126  RH  027%=      5-min Rain = 0
KVA1 111637Z 17004KT 34/12 A3017 RMK A01 T03400124  RH  027%=      5-min Rain = 0
KVA1 111638Z 17005KT 34/12 A3017 RMK A01 T03370124  RH  027%=      5-min Rain = 0
KVA1 111639Z 17004KT 34/13 A3017 RMK A01 T03370125  RH  028%=      5-min Rain = 0
KVA1 111640Z 18003KT 34/13 A3017 RMK A01 T03370125  RH  028%=      5-min Rain = 0
KVA1 111641Z 20006KT 34/13 A3017 RMK A01 T03390125  RH  027%=      5-min Rain = 0
KVA1 111642Z 19003KT 34/12 A3017 RMK A01 T03390124  RH  027%=      5-min Rain = 0
KVA1 111643Z 19003KT 34/12 A3017 RMK A01 T03380124  RH  027%=      5-min Rain = 0
KVA1 111644Z 21003KT 34/13 A3017 RMK A01 T03410125  RH  027%=      5-min Rain = 0
KVA1 111645Z 24002KT 34/13 A3017 RMK A01 T03420125  RH  027%=      5-min Rain = 0
KVA1 111646Z 30002KT 34/12 A3017 RMK A01 T03410123  RH  027%=      5-min Rain = 0
KVA1 111647Z 34000KT 34/12 A3017 RMK A01 T03400122  RH  027%=      5-min Rain = 0
KVA1 111648Z 05001KT 34/12 A3017 RMK A01 T03410123  RH  027%=      5-min Rain = 0
KVA1 111649Z 11002KT 34/12 A3017 RMK A01 T03430123  RH  027%=      5-min Rain = 0
KVA1 111650Z 12003KT 34/13 A3017 RMK A01 T03440125  RH  027%=      5-min Rain = 0
KVA1 111651Z 11003KT 35/12 A3017 RMK A01 T03450124  RH  026%=      5-min Rain = 0
KVA1 111652Z 16006KT 35/12 A3017 RMK A01 T03450124  RH  026%=      5-min Rain = 0
KVA1 111653Z 17006KT 34/13 A3017 RMK A01 T03440125  RH  027%=      5-min Rain = 0
KVA1 111654Z 17005KT 35/13 A3017 RMK A01 T03450125  RH  027%=      5-min Rain = 0
KVA1 111655Z 18006KT 35/12 A3017 RMK A01 T03460124  RH  026%=      5-min Rain = 0
KVA1 111656Z 18006KT 35/13 A3017 RMK A01 T03450125  RH  026%=      5-min Rain = 0
KVA1 111657Z 19004KT 35/13 A3017 RMK A01 T03450125  RH  026%=      5-min Rain = 0
KVA1 111658Z 16004KT 35/12 A3017 RMK A01 T03470124  RH  026%=      5-min Rain = 0
KVA1 111659Z 13003KT 35/12 A3017 RMK A01 T03450124  RH  026%=      5-min Rain = 0
KVA1 111700Z 12002KT 35/12 A3017 RMK A01 T03450124  RH  026%=      5-min Rain = 0
KVA1 111701Z 09003KT 35/12 A3017 RMK A01 T03450122  RH  026%=      5-min Rain = 0
KVA1 111702Z 16002KT 35/12 A3017 RMK A01 T03450123  RH  026%=      5-min Rain = 0
KVA1 111703Z 15003KT 35/12 A3017 RMK A01 T03470121  RH  025%=      5-min Rain = 0
KVA1 111704Z 16002KT 35/12 A3017 RMK A01 T03450119  RH  025%=      5-min Rain = 0
KVA1 111705Z 07001KT 34/12 A3017 RMK A01 T03440117  RH  025%=      5-min Rain = 0
KVA1 111706Z 18001KT 35/12 A3017 RMK A01 T03450117  RH  025%=      5-min Rain = 0
KVA1 111707Z 16004KT 35/12 A3017 RMK A01 T03460119  RH  025%=      5-min Rain = 0
KVA1 111708Z 15003KT 35/12 A3017 RMK A01 T03490118  RH  025%=      5-min Rain = 0
KVA1 111709Z 17004KT 35/12 A3017 RMK A01 T03490121  RH  025%=      5-min Rain = 0
KVA1 111710Z 18002KT 35/12 A3017 RMK A01 T03490119  RH  025%=      5-min Rain = 0
KVA1 111711Z 13000KT 35/12 A3017 RMK A01 T03480119  RH  025%=      5-min Rain = 0
KVA1 111712Z 07002KT 35/12 A3017 RMK A01 T03490118  RH  025%=      5-min Rain = 0
KVA1 111713Z 04002KT 35/12 A3017 RMK A01 T03500116  RH  024%=      5-min Rain = 0
KVA1 111714Z 01002KT 35/12 A3017 RMK A01 T03490116  RH  024%=      5-min Rain = 0
KVA1 111715Z 27001KT 35/12 A3017 RMK A01 T03500116  RH  024%=      5-min Rain = 0
KVA1 111716Z 18004KT 35/12 A3017 RMK A01 T03530116  RH  024%=      5-min Rain = 0
KVA1 111717Z 15003KT 36/11 A3017 RMK A01 T03560114  RH  023%=      5-min Rain = 0
KVA1 111718Z 16003KT 36/12 A3017 RMK A01 T03570115  RH  023%=      5-min Rain = 0
KVA1 111719Z 17003KT 36/12 A3017 RMK A01 T03590116  RH  023%=      5-min Rain = 0
KVA1 111720Z 18004KT 36/12 A3017 RMK A01 T03600115  RH  023%=      5-min Rain = 0
KVA1 111721Z 17003KT 36/12 A3017 RMK A01 T03620117  RH  023%=      5-min Rain = 0
KVA1 111722Z 18002KT 36/12 A3017 RMK A01 T03640117  RH  023%=      5-min Rain = 0
KVA1 111723Z 16003KT 37/11 A3017 RMK A01 T03650114  RH  022%=      5-min Rain = 0
KVA1 111724Z 15004KT 36/11 A3017 RMK A01 T03640113  RH  022%=      5-min Rain = 0
KVA1 111725Z 16004KT 36/11 A3017 RMK A01 T03630112  RH  022%=      5-min Rain = 0
KVA1 111726Z 17004KT 36/11 A3017 RMK A01 T03610112  RH  022%=      5-min Rain = 0
KVA1 111727Z 16003KT 36/11 A3017 RMK A01 T03580108  RH  022%=      5-min Rain = 0
KVA1 111728Z 23003KT 36/11 A3017 RMK A01 T03550108  RH  022%=      5-min Rain = 0
KVA1 111729Z 25003KT 36/11 A3017 RMK A01 T03560107  RH  022%=      5-min Rain = 0
KVA1 111730Z 24004KT 36/11 A3017 RMK A01 T03580108  RH  022%=      5-min Rain = 0
KVA1 111731Z 23003KT 36/11 A3017 RMK A01 T03590109  RH  022%=      5-min Rain = 0
KVA1 111732Z 19002KT 36/11 A3017 RMK A01 T03580108  RH  022%=      5-min Rain = 0
KVA1 111733Z 15002KT 35/11 A3017 RMK A01 T03540108  RH  023%=      5-min Rain = 0
KVA1 111734Z 15005KT 35/11 A3017 RMK A01 T03540111  RH  023%=      5-min Rain = 0
KVA1 111735Z 14006KT 36/11 A3017 RMK A01 T03570112  RH  023%=      5-min Rain = 0
KVA1 111736Z 15007KT 36/11 A3017 RMK A01 T03580110  RH  022%=      5-min Rain = 0
KVA1 111737Z 16004KT 36/11 A3017 RMK A01 T03590111  RH  022%=      5-min Rain = 0
KVA1 111738Z 15003KT 36/11 A3017 RMK A01 T03600113  RH  022%=      5-min Rain = 0
KVA1 111739Z 17006KT 36/11 A3016 RMK A01 T03630111  RH  022%=      5-min Rain = 0
KVA1 111740Z 17008KT 37/11 A3016 RMK A01 T03660107  RH  021%=      5-min Rain = 0
KVA1 111741Z 16007KT 36/11 A3016 RMK A01 T03640105  RH  021%=      5-min Rain = 0
KVA1 111742Z 16006KT 36/11 A3016 RMK A01 T03630106  RH  021%=      5-min Rain = 0
KVA1 111743Z 16003KT 36/11 A3016 RMK A01 T03630106  RH  021%=      5-min Rain = 0
KVA1 111744Z 16002KT 36/11 A3016 RMK A01 T03630107  RH  021%=      5-min Rain = 0
KVA1 111745Z 08001KT 36/11 A3016 RMK A01 T03630107  RH  021%=      5-min Rain = 0
KVA1 111746Z 01001KT 36/11 A3016 RMK A01 T03610110  RH  022%=      5-min Rain = 0
KVA1 111747Z 25001KT 36/11 A3016 RMK A01 T03600113  RH  022%=      5-min Rain = 0
KVA1 111748Z 19004KT 36/11 A3016 RMK A01 T03620111  RH  022%=      5-min Rain = 0
KVA1 111749Z 20004KT 36/11 A3016 RMK A01 T03640111  RH  022%=      5-min Rain = 0
KVA1 111750Z 20003KT 36/11 A3016 RMK A01 T03640111  RH  022%=      5-min Rain = 0
KVA1 111751Z 18006KT 36/11 A3016 RMK A01 T03630111  RH  022%=      5-min Rain = 0
KVA1 111752Z 17007KT 36/11 A3016 RMK A01 T03630111  RH  022%=      5-min Rain = 0
KVA1 111753Z 17005KT 37/11 A3016 RMK A01 T03670114  RH  022%=      5-min Rain = 0
KVA1 111754Z 20002KT 37/11 A3016 RMK A01 T03670113  RH  022%=      5-min Rain = 0
KVA1 111755Z 22001KT 37/11 A3016 RMK A01 T03650113  RH  022%=      5-min Rain = 0
KVA1 111756Z 12002KT 36/11 A3016 RMK A01 T03640113  RH  022%=      5-min Rain = 0
KVA1 111757Z 13003KT 36/11 A3016 RMK A01 T03640111  RH  022%=      5-min Rain = 0
KVA1 111758Z 15008KT 37/11 A3016 RMK A01 T03670112  RH  022%=      5-min Rain = 0
KVA1 111759Z 15007KT 37/11 A3016 RMK A01 T03720112  RH  021%=      5-min Rain = 0
KVA1 111800Z 11005KT 37/11 A3016 RMK A01 T03730113  RH  021%=      5-min Rain = 0
KVA1 111801Z 15008KT 37/11 A3016 RMK A01 T03720114  RH  021%=      5-min Rain = 0
KVA1 111802Z 16008KT 37/11 A3016 RMK A01 T03720111  RH  021%=      5-min Rain = 0
KVA1 111803Z 16005KT 37/11 A3016 RMK A01 T03700110  RH  021%=      5-min Rain = 0
KVA1 111804Z 12006KT 37/11 A3016 RMK A01 T03680111  RH  021%=      5-min Rain = 0
KVA1 111805Z 12006KT 37/11 A3016 RMK A01 T03690110  RH  021%=      5-min Rain = 0
KVA1 111806Z 10004KT 37/11 A3016 RMK A01 T03670109  RH  021%=      5-min Rain = 0
KVA1 111807Z 06003KT 37/11 A3016 RMK A01 T03670107  RH  021%=      5-min Rain = 0
KVA1 111808Z 05004KT 37/11 A3016 RMK A01 T03660106  RH  021%=      5-min Rain = 0
KVA1 111809Z 05005KT 37/11 A3016 RMK A01 T03650106  RH  021%=      5-min Rain = 0
KVA1 111810Z 03006KT 36/11 A3016 RMK A01 T03630109  RH  022%=      5-min Rain = 0
KVA1 111811Z 02006KT 36/11 A3016 RMK A01 T03610108  RH  022%=      5-min Rain = 0
KVA1 111812Z 33002KT 36/11 A3016 RMK A01 T03600107  RH  022%=      5-min Rain = 0
KVA1 111813Z 28003KT 36/11 A3016 RMK A01 T03610106  RH  021%=      5-min Rain = 0
KVA1 111814Z 15004KT 36/11 A3016 RMK A01 T03610106  RH  021%=      5-min Rain = 0
KVA1 111815Z 14005KT 37/11 A3016 RMK A01 T03650108  RH  021%=      5-min Rain = 0
KVA1 111816Z 10002KT 37/11 A3016 RMK A01 T03660108  RH  021%=      5-min Rain = 0
KVA1 111817Z 07006KT 37/11 A3016 RMK A01 T03670110  RH  021%=      5-min Rain = 0
KVA1 111818Z 07003KT 37/11 A3016 RMK A01 T03670106  RH  021%=      5-min Rain = 0
KVA1 111819Z 10001KT 37/11 A3016 RMK A01 T03650106  RH  021%=      5-min Rain = 0
KVA1 111820Z 05000KT 36/11 A3016 RMK A01 T03640106  RH  021%=      5-min Rain = 0
KVA1 111821Z 05003KT 36/11 A3015 RMK A01 T03640106  RH  021%=      5-min Rain = 0
KVA1 111822Z 04002KT 37/11 A3015 RMK A01 T03660105  RH  021%=      5-min Rain = 0
KVA1 111823Z 01001KT 37/10 A3015 RMK A01 T03650104  RH  021%=      5-min Rain = 0
KVA1 111824Z 08000KT 37/11 A3015 RMK A01 T03650105  RH  021%=      5-min Rain = 0
KVA1 111825Z 12005KT 37/11 A3015 RMK A01 T03660106  RH  021%=      5-min Rain = 0
KVA1 111826Z 13002KT 37/11 A3015 RMK A01 T03680105  RH  020%=      5-min Rain = 0
KVA1 111827Z 10002KT 37/10 A3015 RMK A01 T03680103  RH  020%=      5-min Rain = 0
KVA1 111828Z 10006KT 37/11 A3015 RMK A01 T03700106  RH  020%=      5-min Rain = 0
KVA1 111829Z 08005KT 37/11 A3015 RMK A01 T03730106  RH  020%=      5-min Rain = 0
KVA1 111830Z 04004KT 37/10 A3015 RMK A01 T03730104  RH  020%=      5-min Rain = 0
KVA1 111831Z 36004KT 37/10 A3015 RMK A01 T03720103  RH  020%=      5-min Rain = 0
KVA1 111832Z 01002KT 37/10 A3015 RMK A01 T03720104  RH  020%=      5-min Rain = 0
KVA1 111833Z 10001KT 37/10 A3015 RMK A01 T03740104  RH  020%=      5-min Rain = 0
KVA1 111834Z 15003KT 37/11 A3015 RMK A01 T03740105  RH  020%=      5-min Rain = 0
KVA1 111835Z 16007KT 38/10 A3015 RMK A01 T03770103  RH  019%=      5-min Rain = 0
KVA1 111836Z 17008KT 38/10 A3015 RMK A01 T03800101  RH  019%=      5-min Rain = 0
KVA1 111837Z 17007G12KT 38/10 A3015 RMK A01 T03810102  RH  019%=      5-min Rain = 0
KVA1 111838Z 16006KT 38/10 A3015 RMK A01 T03800101  RH  019%=      5-min Rain = 0
KVA1 111839Z 14006KT 38/10 A3015 RMK A01 T03810102  RH  019%=      5-min Rain = 0
KVA1 111840Z 13009KT 38/10 A3015 RMK A01 T03820102  RH  019%=      5-min Rain = 0
KVA1 111841Z 13008KT 38/10 A3015 RMK A01 T03800102  RH  019%=      5-min Rain = 0
KVA1 111842Z 13008KT 38/10 A3015 RMK A01 T03790102  RH  019%=      5-min Rain = 0
KVA1 111843Z 10005KT 38/10 A3015 RMK A01 T03770098  RH  019%=      5-min Rain = 0
KVA1 111844Z 04003KT 37/10 A3015 RMK A01 T03710095  RH  019%=      5-min Rain = 0
KVA1 111845Z 03003KT 37/10 A3015 RMK A01 T03710096  RH  019%=      5-min Rain = 0
KVA1 111846Z 20006KT 37/10 A3015 RMK A01 T03740098  RH  019%=      5-min Rain = 0
KVA1 111847Z 19003KT 38/10 A3015 RMK A01 T03780096  RH  018%=      5-min Rain = 0
KVA1 111848Z 21005KT 38/10 A3015 RMK A01 T03780096  RH  018%=      5-min Rain = 0
KVA1 111849Z 19004KT 38/10 A3015 RMK A01 T03810096  RH  018%=      5-min Rain = 0
KVA1 111850Z 24003KT 38/10 A3015 RMK A01 T03810096  RH  018%=      5-min Rain = 0
KVA1 111851Z 32001KT 38/10 A3014 RMK A01 T03820096  RH  018%=      5-min Rain = 0
KVA1 111852Z 32003KT 38/09 A3014 RMK A01 T03800094  RH  018%=      5-min Rain = 0
KVA1 111853Z 28003KT 38/10 A3014 RMK A01 T03790095  RH  018%=      5-min Rain = 0
KVA1 111854Z 27004KT 38/10 A3014 RMK A01 T03810095  RH  018%=      5-min Rain = 0
KVA1 111855Z 25004KT 38/09 A3014 RMK A01 T03840094  RH  017%=      5-min Rain = 0
KVA1 111856Z 30003KT 39/09 A3014 RMK A01 T03850094  RH  017%=      5-min Rain = 0
KVA1 111857Z 33002KT 38/09 A3014 RMK A01 T03840093  RH  017%=      5-min Rain = 0
KVA1 111858Z 02003KT 38/09 A3014 RMK A01 T03830094  RH  017%=      5-min Rain = 0
KVA1 111859Z 35002KT 39/10 A3014 RMK A01 T03870097  RH  017%=      5-min Rain = 0
KVA1 111900Z 08004KT 39/10 A3014 RMK A01 T03900097  RH  017%=      5-min Rain = 0
KVA1 111901Z 33005KT 39/10 A3014 RMK A01 T03880098  RH  018%=      5-min Rain = 0
KVA1 111902Z 33005KT 39/10 A3014 RMK A01 T03890096  RH  017%=      5-min Rain = 0
KVA1 111903Z 33007KT 39/10 A3014 RMK A01 T03880095  RH  017%=      5-min Rain = 0
KVA1 111904Z 24008KT 38/09 A3014 RMK A01 T03840093  RH  017%=      5-min Rain = 0
KVA1 111905Z 23002KT 38/09 A3014 RMK A01 T03820093  RH  017%=      5-min Rain = 0
KVA1 111906Z 15000KT 38/09 A3014 RMK A01 T03840093  RH  017%=      5-min Rain = 0
KVA1 111907Z 19004KT 39/09 A3014 RMK A01 T03850093  RH  017%=      5-min Rain = 0
KVA1 111908Z 18007G12KT 39/09 A3014 RMK A01 T03880093  RH  017%=      5-min Rain = 0
KVA1 111909Z 18009KT 39/09 A3013 RMK A01 T03910092  RH  017%=      5-min Rain = 0
KVA1 111910Z 15009KT 39/09 A3013 RMK A01 T03890092  RH  017%=      5-min Rain = 0
KVA1 111911Z 11008KT 39/09 A3013 RMK A01 T03870094  RH  017%=      5-min Rain = 0
KVA1 111912Z 14007KT 39/10 A3013 RMK A01 T03860097  RH  018%=      5-min Rain = 0
KVA1 111913Z 16006KT 39/09 A3014 RMK A01 T03880087  RH  016%=      5-min Rain = 0
KVA1 111914Z 17007KT 39/09 A3013 RMK A01 T03890089  RH  016%=      5-min Rain = 0
KVA1 111915Z 13005KT 39/09 A3014 RMK A01 T03900088  RH  016%=      5-min Rain = 0
KVA1 111916Z 11010KT 39/09 A3013 RMK A01 T03890090  RH  016%=      5-min Rain = 0
KVA1 111917Z 09004KT 39/09 A3014 RMK A01 T03870087  RH  016%=      5-min Rain = 0
KVA1 111918Z 13001KT 38/09 A3013 RMK A01 T03820086  RH  017%=      5-min Rain = 0
KVA1 111919Z 11004KT 38/09 A3013 RMK A01 T03810089  RH  017%=      5-min Rain = 0
KVA1 111920Z 12008KT 38/09 A3013 RMK A01 T03820090  RH  017%=      5-min Rain = 0
KVA1 111921Z 13006KT 38/09 A3013 RMK A01 T03830089  RH  017%=      5-min Rain = 0
KVA1 111922Z 09007KT 38/09 A3013 RMK A01 T03840091  RH  017%=      5-min Rain = 0
KVA1 111923Z 08003KT 39/09 A3013 RMK A01 T03850090  RH  017%=      5-min Rain = 0
KVA1 111924Z 05003KT 38/09 A3013 RMK A01 T03840088  RH  017%=      5-min Rain = 0
KVA1 111925Z 02003KT 39/09 A3013 RMK A01 T03850088  RH  017%=      5-min Rain = 0
KVA1 111926Z 05001KT 39/09 A3013 RMK A01 T03880089  RH  016%=      5-min Rain = 0
KVA1 111927Z 06002KT 39/09 A3013 RMK A01 T03920091  RH  016%=      5-min Rain = 0
KVA1 111928Z 16002KT 40/09 A3013 RMK A01 T03970093  RH  016%=      5-min Rain = 0
KVA1 111929Z 18004KT 40/09 A3013 RMK A01 T03980090  RH  016%=      5-min Rain = 0
KVA1 111930Z 17005KT 39/09 A3013 RMK A01 T03940089  RH  016%=      5-min Rain = 0
KVA1 111931Z 19008KT 39/09 A3013 RMK A01 T03920089  RH  016%=      5-min Rain = 0
KVA1 111932Z 19010KT 39/09 A3013 RMK A01 T03890088  RH  016%=      5-min Rain = 0
KVA1 111933Z 22006G11KT 39/09 A3013 RMK A01 T03850087  RH  017%=      5-min Rain = 0
KVA1 111934Z 25004KT 38/09 A3013 RMK A01 T03840088  RH  017%=      5-min Rain = 0
KVA1 111935Z 20002KT 39/09 A3012 RMK A01 T03890089  RH  016%=      5-min Rain = 0
KVA1 111936Z 19003KT 39/09 A3012 RMK A01 T03890088  RH  016%=      5-min Rain = 0
KVA1 111937Z 21007KT 39/09 A3012 RMK A01 T03890088  RH  016%=      5-min Rain = 0
KVA1 111938Z 16010KT 39/09 A3012 RMK A01 T03880091  RH  017%=      5-min Rain = 0
KVA1 111939Z 16009KT 39/09 A3012 RMK A01 T03910091  RH  016%=      5-min Rain = 0
KVA1 111940Z 18007KT 39/09 A3012 RMK A01 T03890091  RH  017%=      5-min Rain = 0
KVA1 111941Z 18004KT 39/09 A3012 RMK A01 T03870090  RH  017%=      5-min Rain = 0
KVA1 111942Z 19003KT 39/09 A3012 RMK A01 T03850089  RH  017%=      5-min Rain = 0
KVA1 111943Z 21006KT 39/09 A3012 RMK A01 T03860090  RH  017%=      5-min Rain = 0
KVA1 111944Z 21007KT 39/09 A3012 RMK A01 T03880089  RH  016%=      5-min Rain = 0
KVA1 111945Z 23006KT 39/09 A3012 RMK A01 T03890088  RH  016%=      5-min Rain = 0
KVA1 111946Z 20008KT 39/09 A3012 RMK A01 T03910091  RH  017%=      5-min Rain = 0
KVA1 111947Z 19010KT 39/09 A3012 RMK A01 T03930092  RH  016%=      5-min Rain = 0
KVA1 111948Z 21008KT 40/09 A3012 RMK A01 T03970091  RH  016%=      5-min Rain = 0
KVA1 111949Z 22007KT 40/09 A3012 RMK A01 T03960089  RH  016%=      5-min Rain = 0
KVA1 111950Z 19006KT 39/09 A3012 RMK A01 T03940090  RH  016%=      5-min Rain = 0
KVA1 111951Z 18007KT 39/09 A3012 RMK A01 T03940091  RH  016%=      5-min Rain = 0
KVA1 111952Z 20006KT 39/09 A3012 RMK A01 T03940092  RH  016%=      5-min Rain = 0
KVA1 111953Z 19005KT 40/09 A3012 RMK A01 T03980093  RH  016%=      5-min Rain = 0
KVA1 111954Z 18006KT 40/09 A3011 RMK A01 T04000093  RH  016%=      5-min Rain = 0
KVA1 111955Z 18007KT 40/09 A3011 RMK A01 T03980092  RH  016%=      5-min Rain = 0
KVA1 111956Z 19005KT 39/09 A3011 RMK A01 T03940091  RH  016%=      5-min Rain = 0
KVA1 111957Z 18006KT 39/09 A3011 RMK A01 T03930093  RH  016%=      5-min Rain = 0
KVA1 111958Z 19007KT 40/09 A3011 RMK A01 T03950092  RH  016%=      5-min Rain = 0
KVA1 111959Z 18005KT 40/09 A3011 RMK A01 T03950090  RH  016%=      5-min Rain = 0
KVA1 112000Z 21004KT 40/09 A3011 RMK A01 T03950087  RH  016%=      5-min Rain = 0
KVA1 112001Z 23002KT 40/09 A3011 RMK A01 T03960086  RH  015%=      5-min Rain = 0
KVA1 112002Z 18003KT 40/09 A3011 RMK A01 T03970085  RH  015%=      5-min Rain = 0
KVA1 112003Z 10002KT 40/09 A3011 RMK A01 T03980088  RH  015%=      5-min Rain = 0
KVA1 112004Z 14001KT 40/09 A3011 RMK A01 T04000088  RH  015%=      5-min Rain = 0
KVA1 112005Z 24002KT 40/09 A3011 RMK A01 T04020088  RH  015%=      5-min Rain = 0
KVA1 112006Z 25005KT 40/09 A3011 RMK A01 T04030086  RH  015%=      5-min Rain = 0
KVA1 112007Z 30004KT 40/08 A3011 RMK A01 T04030083  RH  015%=      5-min Rain = 0
KVA1 112008Z 16002KT 40/08 A3011 RMK A01 T04000084  RH  015%=      5-min Rain = 0
KVA1 112009Z 06006KT 40/08 A3011 RMK A01 T04020084  RH  015%=      5-min Rain = 0
KVA1 112010Z 04006KT 40/08 A3011 RMK A01 T04040084  RH  015%=      5-min Rain = 0
KVA1 112011Z 06008KT 41/09 A3011 RMK A01 T04060086  RH  015%=      5-min Rain = 0
KVA1 112012Z 08007KT 41/09 A3011 RMK A01 T04070086  RH  015%=      5-min Rain = 0
KVA1 112013Z 09008KT 41/09 A3011 RMK A01 T04070088  RH  015%=      5-min Rain = 0
KVA1 112014Z 09004KT 40/09 A3011 RMK A01 T04020085  RH  015%=      5-min Rain = 0
KVA1 112015Z 09004KT 40/08 A3011 RMK A01 T03970084  RH  015%=      5-min Rain = 0
KVA1 112016Z 08003KT 40/08 A3011 RMK A01 T03960084  RH  015%=      5-min Rain = 0
KVA1 112017Z 12001KT 40/08 A3011 RMK A01 T03950084  RH  015%=      5-min Rain = 0
KVA1 112018Z 15001KT 40/08 A3011 RMK A01 T03960082  RH  015%=      5-min Rain = 0
KVA1 112019Z 04004KT 40/09 A301 RMK A01 T03980085  RH  015%=      5-min Rain = 0
KVA1 112020Z 03006KT 40/08 A301 RMK A01 T04030084  RH  015%=      5-min Rain = 0
KVA1 112021Z 05006KT 40/08 A301 RMK A01 T04030081  RH  014%=      5-min Rain = 0
KVA1 112022Z 06005KT 40/08 A301 RMK A01 T03980081  RH  015%=      5-min Rain = 0
KVA1 112023Z 10010KT 40/08 A301 RMK A01 T03960082  RH  015%=      5-min Rain = 0
KVA1 112024Z 09008KT 40/08 A301 RMK A01 T03980082  RH  015%=      5-min Rain = 0
KVA1 112025Z 09007KT 40/08 A301 RMK A01 T03990078  RH  014%=      5-min Rain = 0
KVA1 112026Z 05007KT 40/08 A301 RMK A01 T03970077  RH  014%=      5-min Rain = 0
KVA1 112027Z 05008KT 40/07 A301 RMK A01 T03990073  RH  014%=      5-min Rain = 0
KVA1 112028Z 07006KT 40/08 A301 RMK A01 T03980075  RH  014%=      5-min Rain = 0
KVA1 112029Z 04006KT 40/08 A301 RMK A01 T03990076  RH  014%=      5-min Rain = 0
KVA1 112030Z 05006KT 40/08 A301 RMK A01 T04020075  RH  014%=      5-min Rain = 0
KVA1 112031Z 10006KT 40/08 A301 RMK A01 T04030080  RH  014%=      5-min Rain = 0
KVA1 112032Z 09004KT 40/08 A301 RMK A01 T04020081  RH  014%=      5-min Rain = 0
KVA1 112033Z 06007G12KT 40/08 A301 RMK A01 T04010081  RH  015%=      5-min Rain = 0
KVA1 112034Z 05008KT 40/08 A301 RMK A01 T04040079  RH  014%=      5-min Rain = 0
KVA1 112035Z 05010KT 41/08 A3009 RMK A01 T04050078  RH  014%=      5-min Rain = 0
KVA1 112036Z 06006KT 40/08 A301 RMK A01 T04010077  RH  014%=      5-min Rain = 0
KVA1 112037Z 06007KT 40/08 A3009 RMK A01 T04000078  RH  014%=      5-min Rain = 0
KVA1 112038Z 07007KT 40/08 A3009 RMK A01 T03990077  RH  014%=      5-min Rain = 0
KVA1 112039Z 08005KT 40/08 A3009 RMK A01 T03970079  RH  015%=      5-min Rain = 0
KVA1 112040Z 10005KT 40/08 A3009 RMK A01 T03950078  RH  015%=      5-min Rain = 0
KVA1 112041Z 10002KT 39/08 A3009 RMK A01 T03930076  RH  015%=      5-min Rain = 0
KVA1 112042Z 08004KT 39/08 A3009 RMK A01 T03940078  RH  015%=      5-min Rain = 0
KVA1 112043Z 16002KT 40/08 A3009 RMK A01 T03950076  RH  015%=      5-min Rain = 0
KVA1 112044Z 04004KT 40/08 A3009 RMK A01 T03950075  RH  014%=      5-min Rain = 0
KVA1 112045Z 05004KT 40/07 A3009 RMK A01 T03990072  RH  014%=      5-min Rain = 0
KVA1 112046Z 10007KT 40/07 A3009 RMK A01 T04010072  RH  014%=      5-min Rain = 0
KVA1 112047Z 11011KT 40/07 A3009 RMK A01 T04020072  RH  014%=      5-min Rain = 0
KVA1 112048Z 09010G15KT 41/07 A3009 RMK A01 T04070072  RH  013%=      5-min Rain = 0
KVA1 112049Z 08008KT 41/07 A3009 RMK A01 T04070071  RH  013%=      5-min Rain = 0
KVA1 112050Z 07007KT 40/07 A3009 RMK A01 T04010067  RH  013%=      5-min Rain = 0
KVA1 112051Z 08008KT 40/07 A3009 RMK A01 T03970072  RH  014%=      5-min Rain = 0
KVA1 112052Z 08004KT 40/07 A3009 RMK A01 T03950071  RH  014%=      5-min Rain = 0
KVA1 112053Z 07009KT 40/07 A3009 RMK A01 T03970074  RH  014%=      5-min Rain = 0
KVA1 112054Z 06011KT 40/07 A3009 RMK A01 T03990069  RH  014%=      5-min Rain = 0
KVA1 112055Z 07010KT 40/07 A3009 RMK A01 T03970071  RH  014%=      5-min Rain = 0
KVA1 112056Z 08008KT 40/08 A3009 RMK A01 T03970075  RH  014%=      5-min Rain = 0
KVA1 112057Z 12006KT 40/07 A3009 RMK A01 T04000073  RH  014%=      5-min Rain = 0
KVA1 112058Z 13002KT 40/07 A3009 RMK A01 T04000071  RH  014%=      5-min Rain = 0
KVA1 112059Z 12004G9KT 40/07 A3009 RMK A01 T03980072  RH  014%=      5-min Rain = 0
KVA1 112100Z 09008KT 40/07 A3009 RMK A01 T04000074  RH  014%=      5-min Rain = 0
KVA1 112101Z 08006KT 40/08 A3009 RMK A01 T04030077  RH  014%=      5-min Rain = 0
KVA1 112102Z 06007KT 41/07 A3009 RMK A01 T04050074  RH  014%=      5-min Rain = 0
KVA1 112103Z 05008KT 40/08 A3008 RMK A01 T04040075  RH  014%=      5-min Rain = 0
KVA1 112104Z 02005KT 40/07 A3008 RMK A01 T04030073  RH  014%=      5-min Rain = 0
KVA1 112105Z 11005KT 40/07 A3008 RMK A01 T04010073  RH  014%=      5-min Rain = 0
KVA1 112106Z 12008KT 40/08 A3008 RMK A01 T04030076  RH  014%=      5-min Rain = 0
KVA1 112107Z 12010KT 40/08 A3008 RMK A01 T04030075  RH  014%=      5-min Rain = 0
KVA1 112108Z 14003KT 40/08 A3008 RMK A01 T04010076  RH  014%=      5-min Rain = 0
KVA1 112109Z 32000KT 40/07 A3008 RMK A01 T03990074  RH  014%=      5-min Rain = 0
KVA1 112110Z 02001KT 40/08 A3008 RMK A01 T04010075  RH  014%=      5-min Rain = 0
KVA1 112111Z 08003KT 40/07 A3008 RMK A01 T04010074  RH  014%=      5-min Rain = 0
KVA1 112112Z 12006G13KT 40/08 A3008 RMK A01 T04010078  RH  014%=      5-min Rain = 0
KVA1 112113Z 13010KT 40/08 A3008 RMK A01 T04030075  RH  014%=      5-min Rain = 0
KVA1 112114Z 15006KT 41/07 A3008 RMK A01 T04060072  RH  013%=      5-min Rain = 0
KVA1 112115Z 12005KT 41/07 A3008 RMK A01 T04060074  RH  014%=      5-min Rain = 0
KVA1 112116Z 12006KT 40/07 A3008 RMK A01 T04040072  RH  013%=      5-min Rain = 0
KVA1 112117Z 11007KT 40/07 A3008 RMK A01 T04030071  RH  013%=      5-min Rain = 0
KVA1 112118Z 10006KT 40/07 A3008 RMK A01 T04040069  RH  013%=      5-min Rain = 0
KVA1 112119Z 13010G16KT 40/07 A3008 RMK A01 T04040072  RH  013%=      5-min Rain = 0
KVA1 112120Z 13013KT 41/07 A3008 RMK A01 T04060068  RH  013%=      5-min Rain = 0
KVA1 112121Z 11011KT 41/07 A3008 RMK A01 T04060069  RH  013%=      5-min Rain = 0
KVA1 112122Z 08009KT 41/07 A3007 RMK A01 T04060072  RH  013%=      5-min Rain = 0
KVA1 112123Z 10009G16KT 40/07 A3007 RMK A01 T04040072  RH  013%=      5-min Rain = 0
KVA1 112124Z 14013G18KT 40/07 A3007 RMK A01 T04030069  RH  013%=      5-min Rain = 0
KVA1 112125Z 15007KT 41/07 A3007 RMK A01 T04050068  RH  013%=      5-min Rain = 0
KVA1 112126Z 16007KT 41/07 A3007 RMK A01 T04060069  RH  013%=      5-min Rain = 0
KVA1 112127Z 14008KT 41/07 A3007 RMK A01 T04060071  RH  013%=      5-min Rain = 0
KVA1 112128Z 14007KT 41/07 A3007 RMK A01 T04070071  RH  013%=      5-min Rain = 0
KVA1 112129Z 15010KT 41/07 A3007 RMK A01 T04070071  RH  013%=      5-min Rain = 0
KVA1 112130Z 15010KT 41/07 A3007 RMK A01 T04090071  RH  013%=      5-min Rain = 0
KVA1 112131Z 16008KT 41/07 A3007 RMK A01 T04090070  RH  013%=      5-min Rain = 0
KVA1 112132Z 17009KT 41/07 A3007 RMK A01 T04060073  RH  013%=      5-min Rain = 0
KVA1 112133Z 14012KT 41/07 A3007 RMK A01 T04090072  RH  013%=      5-min Rain = 0
KVA1 112134Z 14011KT 41/07 A3007 RMK A01 T04120070  RH  013%=      5-min Rain = 0
KVA1 112135Z 15008KT 41/07 A3007 RMK A01 T04120071  RH  013%=      5-min Rain = 0
KVA1 112136Z 14009KT 41/07 A3007 RMK A01 T04120070  RH  013%=      5-min Rain = 0
KVA1 112137Z 16009KT 41/07 A3007 RMK A01 T04120071  RH  013%=      5-min Rain = 0
KVA1 112138Z 15013KT 41/07 A3006 RMK A01 T04110072  RH  013%=      5-min Rain = 0
KVA1 112139Z 16008KT 41/07 A3007 RMK A01 T04120073  RH  013%=      5-min Rain = 0
KVA1 112140Z 15011KT 41/07 A3006 RMK A01 T04130072  RH  013%=      5-min Rain = 0
KVA1 112141Z 12011KT 41/07 A3006 RMK A01 T04120071  RH  013%=      5-min Rain = 0
KVA1 112142Z 10009KT 41/07 A3006 RMK A01 T04110068  RH  013%=      5-min Rain = 0
KVA1 112143Z 09008KT 41/07 A3006 RMK A01 T04070068  RH  013%=      5-min Rain = 0
KVA1 112144Z 07009KT 40/07 A3006 RMK A01 T04040073  RH  014%=      5-min Rain = 0
KVA1 112145Z 07007KT 40/07 A3006 RMK A01 T04040071  RH  013%=      5-min Rain = 0
KVA1 112146Z 10007KT 40/07 A3006 RMK A01 T04030074  RH  014%=      5-min Rain = 0
KVA1 112147Z 10009KT 40/07 A3006 RMK A01 T04030070  RH  013%=      5-min Rain = 0
KVA1 112148Z 07008KT 40/07 A3006 RMK A01 T04040070  RH  013%=      5-min Rain = 0
KVA1 112149Z 05009KT 40/07 A3006 RMK A01 T04040065  RH  013%=      5-min Rain = 0
KVA1 112150Z 05006KT 41/07 A3006 RMK A01 T04050066  RH  013%=      5-min Rain = 0
KVA1 112151Z 04005KT 40/07 A3006 RMK A01 T04030066  RH  013%=      5-min Rain = 0
KVA1 112152Z 05007G12KT 40/07 A3006 RMK A01 T04040066  RH  013%=      5-min Rain = 0
KVA1 112153Z 05012KT 41/07 A3006 RMK A01 T04060068  RH  013%=      5-min Rain = 0
KVA1 112154Z 04012KT 41/07 A3006 RMK A01 T04070069  RH  013%=      5-min Rain = 0
KVA1 112155Z 04010KT 41/07 A3006 RMK A01 T04080069  RH  013%=      5-min Rain = 0
KVA1 112156Z 04008KT 41/07 A3006 RMK A01 T04070068  RH  013%=      5-min Rain = 0
KVA1 112157Z 01008KT 41/07 A3006 RMK A01 T04060068  RH  013%=      5-min Rain = 0
KVA1 112158Z 03007KT 40/07 A3006 RMK A01 T04020068  RH  013%=      5-min Rain = 0
KVA1 112159Z 00004KT 40/07 A3006 RMK A01 T04020069  RH  013%=      5-min Rain = 0
KVA1 112200Z 33003KT 40/07 A3006 RMK A01 T04020068  RH  013%=      5-min Rain = 0
KVA1 112201Z 30003KT 40/07 A3006 RMK A01 T04010068  RH  013%=      5-min Rain = 0
KVA1 112202Z 33002KT 40/07 A3006 RMK A01 T04010068  RH  013%=      5-min Rain = 0
KVA1 112203Z 05004KT 40/07 A3006 RMK A01 T04020068  RH  013%=      5-min Rain = 0
KVA1 112204Z 07005KT 41/07 A3005 RMK A01 T04050074  RH  014%=      5-min Rain = 0
KVA1 112205Z 10006KT 41/08 A3005 RMK A01 T04080075  RH  013%=      5-min Rain = 0
KVA1 112206Z 15005KT 41/07 A3005 RMK A01 T04090071  RH  013%=      5-min Rain = 0
KVA1 112207Z 14005KT 41/07 A3005 RMK A01 T04050069  RH  013%=      5-min Rain = 0
KVA1 112208Z 16001KT 40/07 A3005 RMK A01 T04010068  RH  013%=      5-min Rain = 0
KVA1 112209Z 23000KT 40/07 A3005 RMK A01 T03980067  RH  013%=      5-min Rain = 0
KVA1 112210Z 31000KT 40/07 A3005 RMK A01 T03980068  RH  013%=      5-min Rain = 0
KVA1 112211Z 36001KT 40/07 A3005 RMK A01 T03990067  RH  013%=      5-min Rain = 0
KVA1 112212Z 04005KT 40/07 A3005 RMK A01 T04000066  RH  013%=      5-min Rain = 0
KVA1 112213Z 06006KT 40/07 A3005 RMK A01 T04040066  RH  013%=      5-min Rain = 0
KVA1 112214Z 07006KT 41/07 A3005 RMK A01 T04050069  RH  013%=      5-min Rain = 0
KVA1 112215Z 07009KT 41/07 A3005 RMK A01 T04050072  RH  013%=      5-min Rain = 0
KVA1 112216Z 07005KT 41/07 A3005 RMK A01 T04050073  RH  013%=      5-min Rain = 0
KVA1 112217Z 12007KT 41/07 A3005 RMK A01 T04070074  RH  013%=      5-min Rain = 0
KVA1 112218Z 14007KT 41/07 A3005 RMK A01 T04070070  RH  013%=      5-min Rain = 0
KVA1 112219Z 14007KT 41/07 A3005 RMK A01 T04050071  RH  013%=      5-min Rain = 0
KVA1 112220Z 16008KT 40/07 A3005 RMK A01 T04040070  RH  013%=      5-min Rain = 0
KVA1 112221Z 16006KT 40/07 A3005 RMK A01 T04020070  RH  013%=      5-min Rain = 0
KVA1 112222Z 13005KT 40/07 A3005 RMK A01 T04040073  RH  014%=      5-min Rain = 0
KVA1 112223Z 14010KT 41/07 A3005 RMK A01 T04070073  RH  013%=      5-min Rain = 0
KVA1 112224Z 13009KT 41/08 A3005 RMK A01 T04080075  RH  013%=      5-min Rain = 0
KVA1 112225Z 11008KT 41/07 A3005 RMK A01 T04090072  RH  013%=      5-min Rain = 0
KVA1 112226Z 08009KT 41/07 A3005 RMK A01 T04090069  RH  013%=      5-min Rain = 0
KVA1 112227Z 08009KT 40/07 A3005 RMK A01 T04030067  RH  013%=      5-min Rain = 0
KVA1 112228Z 11007KT 40/07 A3005 RMK A01 T03990068  RH  013%=      5-min Rain = 0
KVA1 112229Z 13012KT 40/07 A3005 RMK A01 T03990066  RH  013%=      5-min Rain = 0
KVA1 112230Z 13013KT 40/06 A3005 RMK A01 T04000063  RH  013%=      5-min Rain = 0
KVA1 112231Z 12009KT 40/06 A3005 RMK A01 T03990063  RH  013%=      5-min Rain = 0
KVA1 112232Z 13007KT 40/06 A3005 RMK A01 T03990063  RH  013%=      5-min Rain = 0
KVA1 112233Z 13006KT 40/06 A3005 RMK A01 T03980062  RH  013%=      5-min Rain = 0
KVA1 112234Z 14004KT 40/06 A3005 RMK A01 T03970062  RH  013%=      5-min Rain = 0
KVA1 112235Z 14004KT 40/07 A3005 RMK A01 T03960065  RH  013%=      5-min Rain = 0
KVA1 112236Z 11002KT 40/07 A3005 RMK A01 T03960067  RH  014%=      5-min Rain = 0
KVA1 112237Z 11003KT 40/07 A3005 RMK A01 T03950066  RH  014%=      5-min Rain = 0
KVA1 112238Z 15004KT 40/07 A3005 RMK A01 T03950067  RH  014%=      5-min Rain = 0
KVA1 112239Z 14008KT 40/07 A3005 RMK A01 T03960068  RH  014%=      5-min Rain = 0
KVA1 112240Z 15007KT 40/07 A3005 RMK A01 T03970067  RH  014%=      5-min Rain = 0
KVA1 112241Z 15007KT 40/07 A3005 RMK A01 T03980068  RH  014%=      5-min Rain = 0
KVA1 112242Z 13009KT 40/07 A3005 RMK A01 T03980067  RH  014%=      5-min Rain = 0
KVA1 112243Z 14011KT 40/07 A3005 RMK A01 T03980067  RH  014%=      5-min Rain = 0
KVA1 112244Z 13011KT 40/07 A3005 RMK A01 T03980068  RH  013%=      5-min Rain = 0
KVA1 112245Z 13010KT 40/07 A3005 RMK A01 T03980067  RH  013%=      5-min Rain = 0
KVA1 112246Z 14009KT 40/07 A3005 RMK A01 T03980066  RH  013%=      5-min Rain = 0
KVA1 112247Z 14009KT 40/07 A3005 RMK A01 T03960066  RH  013%=      5-min Rain = 0
KVA1 112248Z 14008KT 40/07 A3005 RMK A01 T03960066  RH  014%=      5-min Rain = 0
KVA1 112249Z 13009KT 40/07 A3005 RMK A01 T03950067  RH  014%=      5-min Rain = 0
KVA1 112250Z 13009KT 40/07 A3005 RMK A01 T03950068  RH  014%=      5-min Rain = 0
KVA1 112251Z 14009KT 40/07 A3005 RMK A01 T03950069  RH  014%=      5-min Rain = 0
KVA1 112252Z 14008KT 40/07 A3005 RMK A01 T03950069  RH  014%=      5-min Rain = 0
KVA1 112253Z 14010KT 40/07 A3005 RMK A01 T03950069  RH  014%=      5-min Rain = 0
KVA1 112254Z 14007KT 39/07 A3005 RMK A01 T03940069  RH  014%=      5-min Rain = 0
KVA1 112255Z 15005KT 39/07 A3005 RMK A01 T03930069  RH  014%=      5-min Rain = 0
KVA1 112256Z 14007KT 39/07 A3004 RMK A01 T03930071  RH  014%=      5-min Rain = 0
KVA1 112257Z 13006KT 39/07 A3004 RMK A01 T03930069  RH  014%=      5-min Rain = 0
KVA1 112258Z 13005KT 39/07 A3004 RMK A01 T03930070  RH  014%=      5-min Rain = 0
KVA1 112259Z 12006KT 39/07 A3004 RMK A01 T03940068  RH  014%=      5-min Rain = 0
KVA1 112300Z 13006KT 40/07 A3004 RMK A01 T03950067  RH  014%=      5-min Rain = 0
KVA1 112301Z 12004KT 40/07 A3004 RMK A01 T03970067  RH  014%=      5-min Rain = 0
KVA1 112302Z 14003KT 40/07 A3004 RMK A01 T03990069  RH  014%=      5-min Rain = 0
KVA1 112303Z 15003KT 40/07 A3004 RMK A01 T04030070  RH  013%=      5-min Rain = 0
KVA1 112304Z 16003KT 41/07 A3004 RMK A01 T04050067  RH  013%=      5-min Rain = 0
KVA1 112305Z 18003KT 40/07 A3004 RMK A01 T04030067  RH  013%=      5-min Rain = 0
KVA1 112306Z 16005KT 40/07 A3004 RMK A01 T04010068  RH  013%=      5-min Rain = 0
KVA1 112307Z 15004KT 40/07 A3004 RMK A01 T04000067  RH  013%=      5-min Rain = 0
KVA1 112308Z 14003KT 40/07 A3004 RMK A01 T04010067  RH  013%=      5-min Rain = 0
KVA1 112309Z 10004KT 40/07 A3004 RMK A01 T04010066  RH  013%=      5-min Rain = 0
KVA1 112310Z 10005KT 40/06 A3004 RMK A01 T04020059  RH  012%=      5-min Rain = 0
KVA1 112311Z 11004KT 40/05 A3004 RMK A01 T04020054  RH  012%=      5-min Rain = 0
KVA1 112312Z 09006KT 40/06 A3004 RMK A01 T04010060  RH  013%=      5-min Rain = 0
KVA1 112313Z 07004KT 40/06 A3004 RMK A01 T03990064  RH  013%=      5-min Rain = 0
KVA1 112314Z 07003KT 40/06 A3004 RMK A01 T03960060  RH  013%=      5-min Rain = 0
KVA1 112315Z 13003KT 39/06 A3004 RMK A01 T03940060  RH  013%=      5-min Rain = 0
KVA1 112316Z 14002KT 39/06 A3004 RMK A01 T03940059  RH  013%=      5-min Rain = 0
KVA1 112317Z 10002KT 40/06 A3004 RMK A01 T03950060  RH  013%=      5-min Rain = 0
KVA1 112318Z 09003KT 40/06 A3004 RMK A01 T03960062  RH  013%=      5-min Rain = 0
KVA1 112319Z 10004KT 40/07 A3004 RMK A01 T03960068  RH  014%=      5-min Rain = 0
KVA1 112320Z 15007G12KT 40/06 A3004 RMK A01 T03970062  RH  013%=      5-min Rain = 0
KVA1 112321Z 07018G29KT 40/05 A3002 RMK A01 T03980051  RH  012%=      5-min Rain = 0
KVA1 112322Z 03012KT 40/06 A3004 RMK A01 T04000058  RH  012%=      5-min Rain = 0
KVA1 112323Z 07014KT 40/04 A3004 RMK A01 T04000040  RH  011%=      5-min Rain = 0
KVA1 112324Z 07016KT 40/03 A3004 RMK A01 T04000030  RH  010%=      5-min Rain = 0
KVA1 112325Z 09016G21KT 40/03 A3004 RMK A01 T03990029  RH  010%=      5-min Rain = 0
KVA1 112326Z 11017KT 40/05 A3004 RMK A01 T03990046  RH  012%=      5-min Rain = 0
KVA1 112327Z 11014KT 40/06 A3004 RMK A01 T03970063  RH  013%=      5-min Rain = 0
KVA1 112328Z 11014KT 40/08 A3004 RMK A01 T03950077  RH  015%=      5-min Rain = 0
KVA1 112329Z 12013KT 39/08 A3004 RMK A01 T03910079  RH  015%=      5-min Rain = 0
KVA1 112330Z 13011KT 39/08 A3004 RMK A01 T03890079  RH  015%=      5-min Rain = 0
KVA1 112331Z 14015G20KT 39/08 A3004 RMK A01 T03890077  RH  015%=      5-min Rain = 0
KVA1 112332Z 14014KT 39/08 A3004 RMK A01 T03890075  RH  015%=      5-min Rain = 0
KVA1 112333Z 14014KT 39/07 A3004 RMK A01 T03890074  RH  015%=      5-min Rain = 0
KVA1 112334Z 14014KT 39/07 A3004 RMK A01 T03890071  RH  015%=      5-min Rain = 0
KVA1 112335Z 16017KT 39/07 A3004 RMK A01 T03900071  RH  014%=      5-min Rain = 0
KVA1 112336Z 16013KT 39/07 A3004 RMK A01 T03900067  RH  014%=      5-min Rain = 0
KVA1 112337Z 17010KT 39/07 A3004 RMK A01 T03900067  RH  014%=      5-min Rain = 0
KVA1 112338Z 16010KT 39/07 A3004 RMK A01 T03900065  RH  014%=      5-min Rain = 0
KVA1 112339Z 16011KT 39/06 A3004 RMK A01 T03910057  RH  013%=      5-min Rain = 0
KVA1 112340Z 16015KT 39/05 A3004 RMK A01 T03920051  RH  012%=      5-min Rain = 0
KVA1 112341Z 14014KT 39/05 A3004 RMK A01 T03930049  RH  012%=      5-min Rain = 0
KVA1 112342Z 14010KT 39/05 A3004 RMK A01 T03930051  RH  012%=      5-min Rain = 0
KVA1 112343Z 14009KT 39/05 A3004 RMK A01 T03930052  RH  012%=      5-min Rain = 0
KVA1 112344Z 15009KT 39/05 A3004 RMK A01 T03930053  RH  013%=      5-min Rain = 0
KVA1 112345Z 14009KT 39/06 A3004 RMK A01 T03930057  RH  013%=      5-min Rain = 0
KVA1 112346Z 11009KT 39/06 A3004 RMK A01 T03930057  RH  013%=      5-min Rain = 0
KVA1 112347Z 10010KT 39/06 A3004 RMK A01 T03930058  RH  013%=      5-min Rain = 0
KVA1 112348Z 09006KT 39/06 A3004 RMK A01 T03910057  RH  013%=      5-min Rain = 0
KVA1 112349Z 09007KT 39/06 A3004 RMK A01 T03890059  RH  013%=      5-min Rain = 0
KVA1 112350Z 08004KT 39/06 A3004 RMK A01 T03870059  RH  013%=      5-min Rain = 0
KVA1 112351Z 10004KT 39/06 A3004 RMK A01 T03860060  RH  014%=      5-min Rain = 0
KVA1 112352Z 16008KT 39/06 A3004 RMK A01 T03860059  RH  014%=      5-min Rain = 0
KVA1 112353Z 16007KT 39/06 A3004 RMK A01 T03870057  RH  013%=      5-min Rain = 0
KVA1 112354Z 17008KT 39/06 A3004 RMK A01 T03880058  RH  013%=      5-min Rain = 0
KVA1 112355Z 17009KT 39/06 A3004 RMK A01 T03880058  RH  013%=      5-min Rain = 0
KVA1 112356Z 16008KT 39/06 A3004 RMK A01 T03890059  RH  013%=      5-min Rain = 0
KVA1 112357Z 17008KT 39/06 A3004 RMK A01 T03880058  RH  013%=      5-min Rain = 0
KVA1 112358Z 16009KT 39/06 A3004 RMK A01 T03880057  RH  013%=      5-min Rain = 0
KVA1 112359Z 17008KT 39/06 A3004 RMK A01 T03880057  RH  013%=      5-min Rain = 0
KVA1 120000Z 16006KT 39/06 A3004 RMK A01 T03880058  RH  013%=      5-min Rain = 0
KVA1 120001Z 16007KT 39/06 A3004 RMK A01 T03890059  RH  013%=      5-min Rain = 0
KVA1 120002Z 15007KT 39/06 A3004 RMK A01 T03890058  RH  013%=      5-min Rain = 0
KVA1 120003Z 15006KT 39/06 A3004 RMK A01 T03880057  RH  013%=      5-min Rain = 0
KVA1 120004Z 14006KT 39/06 A3004 RMK A01 T03870056  RH  013%=      5-min Rain = 0
KVA1 120005Z 14004KT 39/05 A3004 RMK A01 T03870054  RH  013%=      5-min Rain = 0
KVA1 120006Z 17004KT 39/06 A3004 RMK A01 T03870056  RH  013%=      5-min Rain = 0
KVA1 120007Z 20003KT 39/06 A3004 RMK A01 T03860058  RH  013%=      5-min Rain = 0
KVA1 120008Z 18003KT 39/06 A3004 RMK A01 T03860058  RH  013%=      5-min Rain = 0
KVA1 120009Z 16003KT 39/06 A3004 RMK A01 T03860058  RH  013%=      5-min Rain = 0
KVA1 120010Z 16003KT 39/06 A3004 RMK A01 T03860059  RH  014%=      5-min Rain = 0
KVA1 120011Z 13001KT 39/06 A3004 RMK A01 T03860059  RH  014%=      5-min Rain = 0
KVA1 120012Z 14002KT 39/06 A3004 RMK A01 T03860057  RH  013%=      5-min Rain = 0
KVA1 120013Z 15002KT 39/06 A3004 RMK A01 T03860059  RH  014%=      5-min Rain = 0
KVA1 120014Z 13002KT 39/06 A3004 RMK A01 T03860057  RH  013%=      5-min Rain = 0
KVA1 120015Z 12002KT 39/05 A3004 RMK A01 T03860051  RH  013%=      5-min Rain = 0
KVA1 120016Z 12003KT 39/05 A3004 RMK A01 T03870050  RH  013%=      5-min Rain = 0
KVA1 120017Z 10004KT 39/05 A3004 RMK A01 T03870053  RH  013%=      5-min Rain = 0
KVA1 120018Z 08004KT 39/06 A3004 RMK A01 T03860059  RH  014%=      5-min Rain = 0
KVA1 120019Z 07003KT 39/06 A3004 RMK A01 T03860060  RH  014%=      5-min Rain = 0
KVA1 120020Z 08003KT 39/06 A3004 RMK A01 T03850061  RH  014%=      5-min Rain = 0
KVA1 120021Z 09002KT 39/06 A3004 RMK A01 T03850060  RH  014%=      5-min Rain = 0
KVA1 120022Z 09001KT 38/06 A3004 RMK A01 T03840056  RH  013%=      5-min Rain = 0
KVA1 120023Z 10002KT 38/06 A3004 RMK A01 T03840055  RH  013%=      5-min Rain = 0
KVA1 120024Z 13003KT 38/06 A3004 RMK A01 T03840059  RH  014%=      5-min Rain = 0
KVA1 120025Z 14005KT 38/06 A3004 RMK A01 T03840059  RH  014%=      5-min Rain = 0
KVA1 120026Z 15006KT 39/06 A3004 RMK A01 T03850058  RH  014%=      5-min Rain = 0
KVA1 120027Z 16006KT 39/06 A3004 RMK A01 T03860057  RH  013%=      5-min Rain = 0
KVA1 120028Z 14006KT 39/06 A3004 RMK A01 T03870058  RH  013%=      5-min Rain = 0
KVA1 120029Z 12005KT 39/06 A3004 RMK A01 T03870057  RH  013%=      5-min Rain = 0
KVA1 120030Z 14005KT 39/06 A3004 RMK A01 T03870057  RH  013%=      5-min Rain = 0
KVA1 120031Z 10005KT 39/06 A3004 RMK A01 T03870058  RH  013%=      5-min Rain = 0
KVA1 120032Z 09005KT 39/06 A3004 RMK A01 T03880059  RH  013%=      5-min Rain = 0
KVA1 120033Z 10005KT 39/06 A3004 RMK A01 T03870060  RH  014%=      5-min Rain = 0
KVA1 120034Z 10006KT 39/06 A3004 RMK A01 T03870060  RH  014%=      5-min Rain = 0
KVA1 120035Z 12005KT 39/06 A3004 RMK A01 T03860059  RH  014%=      5-min Rain = 0
KVA1 120036Z 12004KT 39/06 A3004 RMK A01 T03870058  RH  013%=      5-min Rain = 0
KVA1 120037Z 12005KT 39/06 A3004 RMK A01 T03870058  RH  013%=      5-min Rain = 0
KVA1 120038Z 11006KT 39/06 A3004 RMK A01 T03870057  RH  013%=      5-min Rain = 0
KVA1 120039Z 10004KT 39/05 A3004 RMK A01 T03870054  RH  013%=      5-min Rain = 0
KVA1 120040Z 10005KT 39/06 A3004 RMK A01 T03870057  RH  013%=      5-min Rain = 0
KVA1 120041Z 11005KT 39/06 A3004 RMK A01 T03870060  RH  014%=      5-min Rain = 0
KVA1 120042Z 09004KT 39/06 A3004 RMK A01 T03870059  RH  014%=      5-min Rain = 0
KVA1 120043Z 09005KT 39/06 A3004 RMK A01 T03860059  RH  014%=      5-min Rain = 0
KVA1 120044Z 09005KT 39/06 A3004 RMK A01 T03850060  RH  014%=      5-min Rain = 0
KVA1 120045Z 12006KT 39/06 A3004 RMK A01 T03850062  RH  014%=      5-min Rain = 0
KVA1 120046Z 18004KT 39/06 A3004 RMK A01 T03850058  RH  014%=      5-min Rain = 0
KVA1 120047Z 16005KT 39/06 A3004 RMK A01 T03850056  RH  013%=      5-min Rain = 0
KVA1 120048Z 16005KT 39/06 A3004 RMK A01 T03860058  RH  014%=      5-min Rain = 0
KVA1 120049Z 14005KT 39/06 A3004 RMK A01 T03860058  RH  013%=      5-min Rain = 0
KVA1 120050Z 12005KT 39/06 A3004 RMK A01 T03870057  RH  013%=      5-min Rain = 0
KVA1 120051Z 11005KT 39/06 A3004 RMK A01 T03870055  RH  013%=      5-min Rain = 0
KVA1 120052Z 11006KT 39/05 A3004 RMK A01 T03880054  RH  013%=      5-min Rain = 0
KVA1 120053Z 12005KT 39/06 A3004 RMK A01 T03880057  RH  013%=      5-min Rain = 0
KVA1 120054Z 13004KT 39/06 A3004 RMK A01 T03880059  RH  013%=      5-min Rain = 0
KVA1 120055Z 13004KT 39/06 A3004 RMK A01 T03890060  RH  013%=      5-min Rain = 0
KVA1 120056Z 12004KT 39/06 A3004 RMK A01 T03890060  RH  013%=      5-min Rain = 0
KVA1 120057Z 12004KT 39/06 A3004 RMK A01 T03890056  RH  013%=      5-min Rain = 0
KVA1 120058Z 11004KT 39/06 A3004 RMK A01 T03900056  RH  013%=      5-min Rain = 0
KVA1 120059Z 11004KT 39/05 A3004 RMK A01 T03910054  RH  013%=      5-min Rain = 0
KVA1 120100Z 12005KT 39/06 A3004 RMK A01 T03910055  RH  013%=      5-min Rain = 0
KVA1 120101Z 12005KT 39/05 A3004 RMK A01 T03910054  RH  013%=      5-min Rain = 0
KVA1 120102Z 14005KT 39/06 A3004 RMK A01 T03910055  RH  013%=      5-min Rain = 0
KVA1 120103Z 14005KT 39/06 A3004 RMK A01 T03910059  RH  013%=      5-min Rain = 0
KVA1 120104Z 13006KT 39/06 A3004 RMK A01 T03910060  RH  013%=      5-min Rain = 0
KVA1 120105Z 11005KT 39/06 A3004 RMK A01 T03900058  RH  013%=      5-min Rain = 0
KVA1 120106Z 11009KT 39/05 A3004 RMK A01 T03900050  RH  012%=      5-min Rain = 0
KVA1 120107Z 10010KT 39/04 A3004 RMK A01 T03900042  RH  012%=      5-min Rain = 0
KVA1 120108Z 12009KT 39/04 A3004 RMK A01 T03900043  RH  012%=      5-min Rain = 0
KVA1 120109Z 12007KT 39/05 A3004 RMK A01 T03900047  RH  012%=      5-min Rain = 0
KVA1 120110Z 11006KT 39/05 A3004 RMK A01 T03900048  RH  012%=      5-min Rain = 0
KVA1 120111Z 11007KT 39/05 A3004 RMK A01 T03910045  RH  012%=      5-min Rain = 0
KVA1 120112Z 10006KT 39/04 A3004 RMK A01 T03910042  RH  012%=      5-min Rain = 0
KVA1 120113Z 09007KT 39/04 A3004 RMK A01 T03910039  RH  011%=      5-min Rain = 0
KVA1 120114Z 08007KT 39/04 A3004 RMK A01 T03890038  RH  012%=      5-min Rain = 0
KVA1 120115Z 09010KT 39/04 A3004 RMK A01 T03890039  RH  012%=      5-min Rain = 0
KVA1 120116Z 09008KT 39/04 A3004 RMK A01 T03880036  RH  011%=      5-min Rain = 0
KVA1 120117Z 09008KT 39/04 A3004 RMK A01 T03880037  RH  012%=      5-min Rain = 0
KVA1 120118Z 08012KT 39/03 A3004 RMK A01 T03880033  RH  011%=      5-min Rain = 0
KVA1 120119Z 08012KT 39/03 A3004 RMK A01 T03880032  RH  011%=      5-min Rain = 0
KVA1 120120Z 09011KT 39/03 A3004 RMK A01 T03880031  RH  011%=      5-min Rain = 0
KVA1 120121Z 09009KT 39/03 A3004 RMK A01 T03880033  RH  011%=      5-min Rain = 0
KVA1 120122Z 09011KT 39/03 A3004 RMK A01 T03890032  RH  011%=      5-min Rain = 0
KVA1 120123Z 10010KT 39/03 A3004 RMK A01 T03890031  RH  011%=      5-min Rain = 0
KVA1 120124Z 11012KT 39/03 A3004 RMK A01 T03890029  RH  011%=      5-min Rain = 0
KVA1 120125Z 11009KT 39/03 A3004 RMK A01 T03890033  RH  011%=      5-min Rain = 0
KVA1 120126Z 11008KT 39/04 A3004 RMK A01 T03890040  RH  012%=      5-min Rain = 0
KVA1 120127Z 11011KT 39/03 A3004 RMK A01 T03890034  RH  011%=      5-min Rain = 0
KVA1 120128Z 09010KT 39/03 A3004 RMK A01 T03880030  RH  011%=      5-min Rain = 0
KVA1 120129Z 10011KT 39/03 A3004 RMK A01 T03880026  RH  011%=      5-min Rain = 0
KVA1 120130Z 09011KT 39/03 A3004 RMK A01 T03870025  RH  011%=      5-min Rain = 0
KVA1 120131Z 09010KT 39/02 A3004 RMK A01 T03870023  RH  011%=      5-min Rain = 0
KVA1 120132Z 09010KT 39/02 A3004 RMK A01 T03870024  RH  011%=      5-min Rain = 0
KVA1 120133Z 08009KT 39/03 A3004 RMK A01 T03870027  RH  011%=      5-min Rain = 0
KVA1 120134Z 08010KT 39/04 A3004 RMK A01 T03870039  RH  012%=      5-min Rain = 0
KVA1 120135Z 08012KT 39/05 A3004 RMK A01 T03860046  RH  012%=      5-min Rain = 0
KVA1 120136Z 09009KT 39/04 A3004 RMK A01 T03860043  RH  012%=      5-min Rain = 0
KVA1 120137Z 10011G16KT 38/05 A3004 RMK A01 T03840047  RH  013%=      5-min Rain = 0
KVA1 120138Z 13013KT 38/06 A3004 RMK A01 T03840055  RH  013%=      5-min Rain = 0
KVA1 120139Z 13011KT 38/06 A3004 RMK A01 T03840059  RH  014%=      5-min Rain = 0
KVA1 120140Z 13010KT 38/06 A3004 RMK A01 T03840061  RH  014%=      5-min Rain = 0
KVA1 120141Z 13010KT 38/06 A3004 RMK A01 T03840061  RH  014%=      5-min Rain = 0
KVA1 120142Z 13008KT 39/06 A3004 RMK A01 T03850063  RH  014%=      5-min Rain = 0
KVA1 120143Z 13007KT 38/06 A3004 RMK A01 T03840063  RH  014%=      5-min Rain = 0
KVA1 120144Z 13008KT 38/06 A3004 RMK A01 T03840063  RH  014%=      5-min Rain = 0
KVA1 120145Z 13007KT 38/06 A3004 RMK A01 T03830063  RH  014%=      5-min Rain = 0
KVA1 120146Z 14006KT 38/06 A3004 RMK A01 T03830064  RH  014%=      5-min Rain = 0
KVA1 120147Z 14005KT 38/06 A3004 RMK A01 T03830062  RH  014%=      5-min Rain = 0
KVA1 120148Z 12006KT 38/06 A3004 RMK A01 T03830061  RH  014%=      5-min Rain = 0
KVA1 120149Z 12007KT 38/06 A3005 RMK A01 T03830059  RH  014%=      5-min Rain = 0
KVA1 120150Z 10005KT 38/06 A3005 RMK A01 T03820059  RH  014%=      5-min Rain = 0
KVA1 120151Z 10006KT 38/07 A3005 RMK A01 T03810066  RH  015%=      5-min Rain = 0
KVA1 120152Z 11007KT 38/06 A3005 RMK A01 T03790063  RH  014%=      5-min Rain = 0
KVA1 120153Z 11008KT 38/05 A3005 RMK A01 T03790053  RH  014%=      5-min Rain = 0
KVA1 120154Z 10008KT 38/04 A3005 RMK A01 T03790040  RH  012%=      5-min Rain = 0
KVA1 120155Z 10008KT 38/03 A3005 RMK A01 T03790034  RH  012%=      5-min Rain = 0
KVA1 120156Z 10006KT 38/04 A3005 RMK A01 T03790035  RH  012%=      5-min Rain = 0
KVA1 120157Z 10006KT 38/03 A3005 RMK A01 T03790034  RH  012%=      5-min Rain = 0
KVA1 120158Z 09006KT 38/03 A3005 RMK A01 T03780031  RH  012%=      5-min Rain = 0
KVA1 120159Z 09007KT 38/02 A3005 RMK A01 T03770020  RH  011%=      5-min Rain = 0
KVA1 120200Z 07005KT 38/02 A3005 RMK A01 T03770018  RH  011%=      5-min Rain = 0
KVA1 120201Z 04003KT 38/02 A3004 RMK A01 T03760018  RH  011%=      5-min Rain = 0
KVA1 120202Z 06012G21KT 38/02 A3004 RMK A01 T03760022  RH  011%=      5-min Rain = 0
KVA1 120203Z 12011G18KT 38/03 A3004 RMK A01 T03760026  RH  011%=      5-min Rain = 0
KVA1 120204Z 13010KT 38/02 A3005 RMK A01 T03760020  RH  011%=      5-min Rain = 0
KVA1 120205Z 12009KT 38/03 A3005 RMK A01 T03760027  RH  011%=      5-min Rain = 0
KVA1 120206Z 12010KT 38/03 A3005 RMK A01 T03760031  RH  012%=      5-min Rain = 0
KVA1 120207Z 12010KT 38/03 A3005 RMK A01 T03760032  RH  012%=      5-min Rain = 0
KVA1 120208Z 13011KT 38/03 A3005 RMK A01 T03750031  RH  012%=      5-min Rain = 0
KVA1 120209Z 15009KT 38/03 A3005 RMK A01 T03750034  RH  012%=      5-min Rain = 0
KVA1 120210Z 17009KT 38/04 A3005 RMK A01 T03750044  RH  013%=      5-min Rain = 0
KVA1 120211Z 17008KT 37/05 A3005 RMK A01 T03740047  RH  013%=      5-min Rain = 0
KVA1 120212Z 16008KT 37/06 A3005 RMK A01 T03730055  RH  014%=      5-min Rain = 0
KVA1 120213Z 16008KT 37/06 A3005 RMK A01 T03720062  RH  015%=      5-min Rain = 0
KVA1 120214Z 17007KT 37/07 A3005 RMK A01 T03720066  RH  015%=      5-min Rain = 0
KVA1 120215Z 18008KT 37/07 A3005 RMK A01 T03710067  RH  016%=      5-min Rain = 0
KVA1 120216Z 17006KT 37/07 A3006 RMK A01 T03710068  RH  016%=      5-min Rain = 0
KVA1 120217Z 16006KT 37/07 A3006 RMK A01 T03700068  RH  016%=      5-min Rain = 0
KVA1 120218Z 15006KT 37/07 A3006 RMK A01 T03700068  RH  016%=      5-min Rain = 0
KVA1 120219Z 15010KT 37/07 A3006 RMK A01 T03700068  RH  016%=      5-min Rain = 0
KVA1 120220Z 15007KT 37/07 A3006 RMK A01 T03700068  RH  016%=      5-min Rain = 0
KVA1 120221Z 16007KT 37/07 A3006 RMK A01 T03700068  RH  016%=      5-min Rain = 0
KVA1 120222Z 16007KT 37/07 A3006 RMK A01 T03690069  RH  016%=      5-min Rain = 0
KVA1 120223Z 16009KT 37/07 A3006 RMK A01 T03680069  RH  016%=      5-min Rain = 0
KVA1 120224Z 16008KT 37/07 A3006 RMK A01 T03680069  RH  016%=      5-min Rain = 0
KVA1 120225Z 16010KT 37/07 A3006 RMK A01 T03670068  RH  016%=      5-min Rain = 0
KVA1 120226Z 15008KT 37/07 A3006 RMK A01 T03670068  RH  016%=      5-min Rain = 0
KVA1 120227Z 15007KT 37/07 A3006 RMK A01 T03670068  RH  016%=      5-min Rain = 0
KVA1 120228Z 15010KT 37/07 A3006 RMK A01 T03670068  RH  016%=      5-min Rain = 0
KVA1 120229Z 16009KT 37/07 A3006 RMK A01 T03670068  RH  016%=      5-min Rain = 0
KVA1 120230Z 15007KT 37/07 A3006 RMK A01 T03670068  RH  016%=      5-min Rain = 0
KVA1 120231Z 15007KT 37/07 A3006 RMK A01 T03670067  RH  016%=      5-min Rain = 0
KVA1 120232Z 15006KT 37/07 A3007 RMK A01 T03670067  RH  016%=      5-min Rain = 0
KVA1 120233Z 16006KT 37/07 A3007 RMK A01 T03670068  RH  016%=      5-min Rain = 0
KVA1 120234Z 16006KT 37/07 A3007 RMK A01 T03660068  RH  016%=      5-min Rain = 0
KVA1 120235Z 15006KT 37/07 A3007 RMK A01 T03650068  RH  016%=      5-min Rain = 0
KVA1 120236Z 16006KT 36/07 A3007 RMK A01 T03640068  RH  016%=      5-min Rain = 0
KVA1 120237Z 15007KT 36/07 A3007 RMK A01 T03640068  RH  016%=      5-min Rain = 0
KVA1 120238Z 15006KT 36/07 A3007 RMK A01 T03630066  RH  016%=      5-min Rain = 0
KVA1 120239Z 15005KT 36/07 A3007 RMK A01 T03630067  RH  016%=      5-min Rain = 0
KVA1 120240Z 15005KT 36/07 A3007 RMK A01 T03630066  RH  016%=      5-min Rain = 0
KVA1 120241Z 15007KT 36/07 A3007 RMK A01 T03620066  RH  016%=      5-min Rain = 0
KVA1 120242Z 16009KT 36/06 A3007 RMK A01 T03620064  RH  016%=      5-min Rain = 0
KVA1 120243Z 15007KT 36/06 A3007 RMK A01 T03620063  RH  016%=      5-min Rain = 0
KVA1 120244Z 15008KT 36/06 A3007 RMK A01 T03620063  RH  016%=      5-min Rain = 0
KVA1 120245Z 15008KT 36/06 A3007 RMK A01 T03620062  RH  016%=      5-min Rain = 0
KVA1 120246Z 16007KT 36/06 A3007 RMK A01 T03620062  RH  016%=      5-min Rain = 0
KVA1 120247Z 16007KT 36/06 A3007 RMK A01 T03620061  RH  016%=      5-min Rain = 0
KVA1 120248Z 16008KT 36/06 A3007 RMK A01 T03620062  RH  016%=      5-min Rain = 0
KVA1 120249Z 15008KT 36/06 A3007 RMK A01 T03620060  RH  016%=      5-min Rain = 0
KVA1 120250Z 16007KT 36/06 A3007 RMK A01 T03620059  RH  016%=      5-min Rain = 0
KVA1 120251Z 16007KT 36/06 A3007 RMK A01 T03620059  RH  015%=      5-min Rain = 0
KVA1 120252Z 16007KT 36/06 A3007 RMK A01 T03620059  RH  016%=      5-min Rain = 0
KVA1 120253Z 16007KT 36/06 A3007 RMK A01 T03610059  RH  016%=      5-min Rain = 0
KVA1 120254Z 16007KT 36/06 A3007 RMK A01 T03600058  RH  016%=      5-min Rain = 0
KVA1 120255Z 16006KT 36/06 A3007 RMK A01 T03590057  RH  015%=      5-min Rain = 0
KVA1 120256Z 15006KT 36/06 A3007 RMK A01 T03590057  RH  015%=      5-min Rain = 0
KVA1 120257Z 16007KT 36/06 A3008 RMK A01 T03580056  RH  015%=      5-min Rain = 0
KVA1 120258Z 16006KT 36/06 A3008 RMK A01 T03570055  RH  015%=      5-min Rain = 0
KVA1 120259Z 16007KT 36/05 A3007 RMK A01 T03570054  RH  015%=      5-min Rain = 0
KVA1 120300Z 16006KT 36/05 A3008 RMK A01 T03570054  RH  015%=      5-min Rain = 0
KVA1 120301Z 17007KT 36/05 A3008 RMK A01 T03560054  RH  015%=      5-min Rain = 0
KVA1 120302Z 16007KT 36/05 A3008 RMK A01 T03550053  RH  015%=      5-min Rain = 0
KVA1 120303Z 16008KT 36/05 A3008 RMK A01 T03550053  RH  015%=      5-min Rain = 0
KVA1 120304Z 16011KT 36/05 A3008 RMK A01 T03550051  RH  015%=      5-min Rain = 0
KVA1 120305Z 17008KT 36/05 A3008 RMK A01 T03550049  RH  015%=      5-min Rain = 0
KVA1 120306Z 17007KT 36/05 A3008 RMK A01 T03550051  RH  015%=      5-min Rain = 0
KVA1 120307Z 16009KT 36/05 A3008 RMK A01 T03550050  RH  015%=      5-min Rain = 0
KVA1 120308Z 16008KT 35/05 A3008 RMK A01 T03540049  RH  015%=      5-min Rain = 0
KVA1 120309Z 17008KT 36/05 A3008 RMK A01 T03550049  RH  015%=      5-min Rain = 0
KVA1 120310Z 17007KT 36/05 A3008 RMK A01 T03550049  RH  015%=      5-min Rain = 0
KVA1 120311Z 17007KT 35/05 A3008 RMK A01 T03540049  RH  015%=      5-min Rain = 0
KVA1 120312Z 17008KT 35/05 A3008 RMK A01 T03530049  RH  015%=      5-min Rain = 0
KVA1 120313Z 17008KT 35/05 A3008 RMK A01 T03520049  RH  015%=      5-min Rain = 0
KVA1 120314Z 17007KT 35/05 A3008 RMK A01 T03510048  RH  015%=      5-min Rain = 0
KVA1 120315Z 17007KT 35/05 A3008 RMK A01 T03510048  RH  015%=      5-min Rain = 0
KVA1 120316Z 17007KT 35/05 A3008 RMK A01 T03500048  RH  015%=      5-min Rain = 0
KVA1 120317Z 17006KT 35/05 A3008 RMK A01 T03490047  RH  015%=      5-min Rain = 0
KVA1 120318Z 17007KT 35/05 A3008 RMK A01 T03490047  RH  015%=      5-min Rain = 0
KVA1 120319Z 17008KT 35/05 A3008 RMK A01 T03490046  RH  015%=      5-min Rain = 0
KVA1 120320Z 17007KT 35/05 A3009 RMK A01 T03490046  RH  015%=      5-min Rain = 0
KVA1 120321Z 17006KT 35/05 A3009 RMK A01 T03480046  RH  015%=      5-min Rain = 0
KVA1 120322Z 17007KT 35/05 A3009 RMK A01 T03470046  RH  015%=      5-min Rain = 0
KVA1 120323Z 17009KT 35/05 A3009 RMK A01 T03470045  RH  015%=      5-min Rain = 0
KVA1 120324Z 17009KT 35/04 A3009 RMK A01 T03470044  RH  015%=      5-min Rain = 0
KVA1 120325Z 17009KT 35/04 A3009 RMK A01 T03470043  RH  015%=      5-min Rain = 0
KVA1 120326Z 17010KT 35/04 A3009 RMK A01 T03470042  RH  015%=      5-min Rain = 0
KVA1 120327Z 17009KT 35/04 A3009 RMK A01 T03470042  RH  015%=      5-min Rain = 0
KVA1 120328Z 17010KT 35/04 A3009 RMK A01 T03480042  RH  015%=      5-min Rain = 0
KVA1 120329Z 17009KT 35/04 A3009 RMK A01 T03480041  RH  015%=      5-min Rain = 0
KVA1 120330Z 17009KT 35/04 A3009 RMK A01 T03480041  RH  015%=      5-min Rain = 0
KVA1 120331Z 17009KT 35/04 A3009 RMK A01 T03480041  RH  015%=      5-min Rain = 0
KVA1 120332Z 17010KT 35/04 A3009 RMK A01 T03480041  RH  015%=      5-min Rain = 0
KVA1 120333Z 17008KT 35/04 A3009 RMK A01 T03480041  RH  015%=      5-min Rain = 0
KVA1 120334Z 17008KT 35/04 A3009 RMK A01 T03470042  RH  015%=      5-min Rain = 0
KVA1 120335Z 18009KT 35/04 A3009 RMK A01 T03460041  RH  015%=      5-min Rain = 0
KVA1 120336Z 18009KT 35/04 A3009 RMK A01 T03460042  RH  015%=      5-min Rain = 0
KVA1 120337Z 17009KT 35/04 A3009 RMK A01 T03460041  RH  015%=      5-min Rain = 0
KVA1 120338Z 17008KT 35/04 A3009 RMK A01 T03460042  RH  015%=      5-min Rain = 0
KVA1 120339Z 17010KT 35/04 A3009 RMK A01 T03460042  RH  015%=      5-min Rain = 0
KVA1 120340Z 17010KT 35/04 A3009 RMK A01 T03460042  RH  015%=      5-min Rain = 0
KVA1 120341Z 17009KT 35/04 A3009 RMK A01 T03450042  RH  015%=      5-min Rain = 0
KVA1 120342Z 17008KT 34/04 A3009 RMK A01 T03440042  RH  015%=      5-min Rain = 0
KVA1 120343Z 17009KT 35/04 A3009 RMK A01 T03450043  RH  015%=      5-min Rain = 0
KVA1 120344Z 17010KT 34/04 A3009 RMK A01 T03440042  RH  015%=      5-min Rain = 0
KVA1 120345Z 17009KT 34/04 A3009 RMK A01 T03440043  RH  015%=      5-min Rain = 0
KVA1 120346Z 17010KT 34/04 A3009 RMK A01 T03440043  RH  015%=      5-min Rain = 0
KVA1 120347Z 17009KT 34/04 A3009 RMK A01 T03440043  RH  015%=      5-min Rain = 0
KVA1 120348Z 17008KT 34/04 A301 RMK A01 T03440043  RH  015%=      5-min Rain = 0
KVA1 120349Z 18008KT 34/04 A301 RMK A01 T03440043  RH  015%=      5-min Rain = 0
KVA1 120350Z 17008KT 34/04 A301 RMK A01 T03430044  RH  015%=      5-min Rain = 0
KVA1 120351Z 18008KT 34/04 A301 RMK A01 T03430044  RH  015%=      5-min Rain = 0
KVA1 120352Z 17010KT 34/04 A301 RMK A01 T03420043  RH  016%=      5-min Rain = 0
KVA1 120353Z 18009KT 34/04 A301 RMK A01 T03410044  RH  016%=      5-min Rain = 0
KVA1 120354Z 18008KT 34/04 A301 RMK A01 T03420044  RH  016%=      5-min Rain = 0
KVA1 120355Z 18010KT 34/04 A301 RMK A01 T03410044  RH  016%=      5-min Rain = 0
KVA1 120356Z 18009KT 34/04 A301 RMK A01 T03410044  RH  016%=      5-min Rain = 0
KVA1 120357Z 18007KT 34/04 A301 RMK A01 T03410044  RH  016%=      5-min Rain = 0
KVA1 120358Z 18007KT 34/04 A301 RMK A01 T03410044  RH  016%=      5-min Rain = 0
KVA1 120359Z 19008KT 34/04 A301 RMK A01 T03400043  RH  016%=      5-min Rain = 0
KVA1 120400Z 19009KT 34/04 A301 RMK A01 T03390043  RH  016%=      5-min Rain = 0
KVA1 120401Z 19007KT 34/04 A301 RMK A01 T03380043  RH  016%=      5-min Rain = 0
KVA1 120402Z 19008KT 34/04 A301 RMK A01 T03380043  RH  016%=      5-min Rain = 0
KVA1 120403Z 20009KT 34/04 A301 RMK A01 T03370043  RH  016%=      5-min Rain = 0
KVA1 120404Z 21008KT 34/04 A301 RMK A01 T03360043  RH  016%=      5-min Rain = 0
KVA1 120405Z 21008KT 33/04 A301 RMK A01 T03340042  RH  016%=      5-min Rain = 0
KVA1 120406Z 21008KT 33/04 A301 RMK A01 T03320042  RH  016%=      5-min Rain = 0
KVA1 120407Z 20008KT 33/04 A301 RMK A01 T03300043  RH  016%=      5-min Rain = 0
KVA1 120408Z 20008KT 33/04 A301 RMK A01 T03300043  RH  017%=      5-min Rain = 0
KVA1 120409Z 19009KT 33/04 A301 RMK A01 T03300043  RH  017%=      5-min Rain = 0
KVA1 120410Z 19009KT 33/04 A301 RMK A01 T03300043  RH  016%=      5-min Rain = 0
KVA1 120411Z 19009KT 33/04 A301 RMK A01 T03310043  RH  016%=      5-min Rain = 0
KVA1 120412Z 18009KT 33/04 A301 RMK A01 T03310043  RH  016%=      5-min Rain = 0
KVA1 120413Z 19010KT 33/04 A301 RMK A01 T03320043  RH  016%=      5-min Rain = 0
KVA1 120414Z 19009KT 33/04 A301 RMK A01 T03320043  RH  016%=      5-min Rain = 0
KVA1 120415Z 18010KT 33/04 A301 RMK A01 T03320043  RH  016%=      5-min Rain = 0
KVA1 120416Z 18009KT 33/04 A301 RMK A01 T03320043  RH  016%=      5-min Rain = 0
KVA1 120417Z 18008KT 33/04 A301 RMK A01 T03320043  RH  016%=      5-min Rain = 0
KVA1 120418Z 20007KT 33/04 A301 RMK A01 T03320043  RH  016%=      5-min Rain = 0
KVA1 120419Z 21007KT 33/04 A301 RMK A01 T03310043  RH  016%=      5-min Rain = 0
KVA1 120420Z 20007KT 33/04 A301 RMK A01 T03290042  RH  016%=      5-min Rain = 0
KVA1 120421Z 20007KT 33/04 A301 RMK A01 T03270042  RH  017%=      5-min Rain = 0
KVA1 120422Z 20007KT 33/04 A301 RMK A01 T03260042  RH  017%=      5-min Rain = 0
KVA1 120423Z 20008KT 33/04 A301 RMK A01 T03260042  RH  017%=      5-min Rain = 0
KVA1 120424Z 20007KT 33/04 A301 RMK A01 T03260042  RH  017%=      5-min Rain = 0
KVA1 120425Z 20008KT 33/04 A301 RMK A01 T03250042  RH  017%=      5-min Rain = 0
KVA1 120426Z 20007KT 33/04 A301 RMK A01 T03250042  RH  017%=      5-min Rain = 0
KVA1 120427Z 19007KT 33/04 A301 RMK A01 T03250042  RH  017%=      5-min Rain = 0
KVA1 120428Z 20008KT 33/04 A301 RMK A01 T03250042  RH  017%=      5-min Rain = 0
KVA1 120429Z 20007KT 33/04 A301 RMK A01 T03250042  RH  017%=      5-min Rain = 0
KVA1 120430Z 20007KT 33/04 A301 RMK A01 T03250041  RH  017%=      5-min Rain = 0
KVA1 120431Z 20007KT 32/04 A301 RMK A01 T03240042  RH  017%=      5-min Rain = 0
KVA1 120432Z 20007KT 32/04 A301 RMK A01 T03230041  RH  017%=      5-min Rain = 0
KVA1 120433Z 20008KT 32/04 A301 RMK A01 T03230042  RH  017%=      5-min Rain = 0
KVA1 120434Z 20008KT 32/04 A301 RMK A01 T03220042  RH  017%=      5-min Rain = 0
KVA1 120435Z 20007KT 32/04 A301 RMK A01 T03220041  RH  017%=      5-min Rain = 0
KVA1 120436Z 20008KT 32/04 A301 RMK A01 T03210042  RH  017%=      5-min Rain = 0
KVA1 120437Z 20007KT 32/04 A301 RMK A01 T03210041  RH  017%=      5-min Rain = 0
KVA1 120438Z 19007KT 32/04 A301 RMK A01 T03200041  RH  017%=      5-min Rain = 0
KVA1 120439Z 19007KT 32/04 A301 RMK A01 T03200041  RH  017%=      5-min Rain = 0
KVA1 120440Z 19007KT 32/04 A301 RMK A01 T03190041  RH  017%=      5-min Rain = 0
KVA1 120441Z 19007KT 32/04 A301 RMK A01 T03200041  RH  017%=      5-min Rain = 0
KVA1 120442Z 19007KT 32/04 A301 RMK A01 T03200041  RH  017%=      5-min Rain = 0
KVA1 120443Z 19007KT 32/04 A301 RMK A01 T03200041  RH  017%=      5-min Rain = 0
KVA1 120444Z 20007KT 32/04 A301 RMK A01 T03200041  RH  017%=      5-min Rain = 0
KVA1 120445Z 19007KT 32/04 A301 RMK A01 T03190040  RH  017%=      5-min Rain = 0
KVA1 120446Z 19009KT 32/04 A3011 RMK A01 T03190040  RH  017%=      5-min Rain = 0
KVA1 120447Z 19007KT 32/04 A3011 RMK A01 T03180040  RH  017%=      5-min Rain = 0
KVA1 120448Z 19009KT 32/04 A3011 RMK A01 T03180040  RH  017%=      5-min Rain = 0
KVA1 120449Z 19010KT 32/04 A3011 RMK A01 T03180039  RH  017%=      5-min Rain = 0
KVA1 120450Z 18008KT 32/04 A3011 RMK A01 T03190039  RH  017%=      5-min Rain = 0
KVA1 120451Z 19008KT 32/04 A3011 RMK A01 T03200039  RH  017%=      5-min Rain = 0
KVA1 120452Z 19008KT 32/04 A3011 RMK A01 T03190039  RH  017%=      5-min Rain = 0
KVA1 120453Z 19008KT 32/04 A3011 RMK A01 T03190039  RH  017%=      5-min Rain = 0
KVA1 120454Z 19010KT 32/04 A3011 RMK A01 T03200039  RH  017%=      5-min Rain = 0
KVA1 120455Z 19010KT 32/04 A3011 RMK A01 T03200038  RH  017%=      5-min Rain = 0
KVA1 120456Z 19008KT 32/04 A3011 RMK A01 T03200038  RH  017%=      5-min Rain = 0
KVA1 120457Z 19008KT 32/04 A3011 RMK A01 T03210038  RH  017%=      5-min Rain = 0
KVA1 120458Z 19008KT 32/04 A3011 RMK A01 T03200038  RH  017%=      5-min Rain = 0
KVA1 120459Z 19009KT 32/04 A3011 RMK A01 T03200038  RH  017%=      5-min Rain = 0

Page generated in 0.151 seconds.